Wetterdaten: Montag, 11.05.2015
Datum Zeit Temp. Aussen +5cm Feuchte Auss Luftdruck Regen Sonnenschein Regendauer Solar Windben
11.05.2015 00:00 13,3 C 11,1 C 77 % 1023,4 hPa 0,0 l/m 0 min 0 min 0 W/m 8,4 km/h (2 Bft)
11.05.2015 00:02 13,3 C 11,1 C 77 % 1023,4 hPa 0,0 l/m 0 min 0 min 0 W/m 6,3 km/h (2 Bft)
11.05.2015 00:05 13,3 C 11,1 C 77 % 1023,4 hPa 0,0 l/m 0 min 0 min 0 W/m 8,4 km/h (2 Bft)
11.05.2015 00:06 13,3 C 11,1 C 77 % 1023,4 hPa 0,0 l/m 0 min 0 min 0 W/m 6,3 km/h (2 Bft)
11.05.2015 00:08 13,3 C 11,1 C 77 % 1023,4 hPa 0,0 l/m 0 min 0 min 0 W/m 8,4 km/h (2 Bft)
11.05.2015 00:10 13,3 C 11,1 C 77 % 1023,4 hPa 0,0 l/m 0 min 0 min 0 W/m 6,3 km/h (2 Bft)
11.05.2015 00:12 13,3 C 11,1 C 77 % 1023,4 hPa 0,0 l/m 0 min 0 min 0 W/m 6,3 km/h (2 Bft)
11.05.2015 00:14 13,3 C 11,1 C 77 % 1023,5 hPa 0,0 l/m 0 min 0 min 0 W/m 8,4 km/h (2 Bft)
11.05.2015 00:16 13,2 C 11,1 C 77 % 1023,3 hPa 0,0 l/m 0 min 0 min 0 W/m 8,4 km/h (2 Bft)
11.05.2015 00:18 13,3 C 11,1 C 77 % 1023,3 hPa 0,0 l/m 0 min 0 min 0 W/m 12,6 km/h (3 Bft)
11.05.2015 00:20 13,3 C 11,1 C 77 % 1023,3 hPa 0,0 l/m 0 min 0 min 0 W/m 12,6 km/h (3 Bft)
11.05.2015 00:22 13,3 C 11,1 C 77 % 1023,3 hPa 0,0 l/m 0 min 0 min 0 W/m 8,4 km/h (2 Bft)
11.05.2015 00:24 13,3 C 11,1 C 77 % 1023,3 hPa 0,0 l/m 0 min 0 min 0 W/m 8,4 km/h (2 Bft)
11.05.2015 00:26 13,3 C 11,1 C 77 % 1023,3 hPa 0,0 l/m 0 min 0 min 0 W/m 6,3 km/h (2 Bft)
11.05.2015 00:28 13,3 C 11,1 C 77 % 1023,4 hPa 0,0 l/m 0 min 0 min 0 W/m 8,4 km/h (2 Bft)
11.05.2015 00:30 13,3 C 11,1 C 77 % 1023,3 hPa 0,0 l/m 0 min 0 min 0 W/m 10,5 km/h (2 Bft)
11.05.2015 00:32 13,3 C 11,1 C 77 % 1023,4 hPa 0,0 l/m 0 min 0 min 0 W/m 10,5 km/h (2 Bft)
11.05.2015 00:34 13,3 C 11,1 C 77 % 1023,3 hPa 0,0 l/m 0 min 0 min 0 W/m 10,5 km/h (2 Bft)
11.05.2015 00:36 13,4 C 11,1 C 77 % 1023,3 hPa 0,0 l/m 0 min 0 min 0 W/m 8,4 km/h (2 Bft)
11.05.2015 00:38 13,4 C 11,1 C 77 % 1023,2 hPa 0,0 l/m 0 min 0 min 0 W/m 12,6 km/h (3 Bft)
11.05.2015 00:40 13,4 C 11,1 C 77 % 1023,3 hPa 0,0 l/m 0 min 0 min 0 W/m 12,6 km/h (3 Bft)
11.05.2015 00:42 13,4 C 11,1 C 77 % 1023,3 hPa 0,0 l/m 0 min 0 min 0 W/m 8,4 km/h (2 Bft)
11.05.2015 00:44 13,4 C 11,1 C 77 % 1023,4 hPa 0,0 l/m 0 min 0 min 0 W/m 10,5 km/h (2 Bft)
11.05.2015 00:46 13,4 C 11,1 C 77 % 1023,3 hPa 0,0 l/m 0 min 0 min 0 W/m 8,4 km/h (2 Bft)
11.05.2015 00:48 13,4 C 11,1 C 77 % 1023,3 hPa 0,0 l/m 0 min 0 min 0 W/m 8,4 km/h (2 Bft)
11.05.2015 00:50 13,4 C 11,1 C 77 % 1023,3 hPa 0,0 l/m 0 min 0 min 0 W/m 8,4 km/h (2 Bft)
11.05.2015 00:52 13,4 C 11,1 C 77 % 1023,3 hPa 0,0 l/m 0 min 0 min 0 W/m 8,4 km/h (2 Bft)
11.05.2015 00:54 13,4 C 11,1 C 77 % 1023,3 hPa 0,0 l/m 0 min 0 min 0 W/m 8,4 km/h (2 Bft)
11.05.2015 00:56 13,4 C 11,1 C 77 % 1023,3 hPa 0,0 l/m 0 min 0 min 0 W/m 10,5 km/h (2 Bft)
11.05.2015 00:58 13,4 C 11,1 C 77 % 1023,2 hPa 0,0 l/m 0 min 0 min 0 W/m 8,4 km/h (2 Bft)
11.05.2015 01:00 13,4 C 11,1 C 77 % 1023,3 hPa 0,0 l/m 0 min 0 min 0 W/m 6,3 km/h (2 Bft)
11.05.2015 01:02 13,4 C 11,1 C 78 % 1023,3 hPa 0,0 l/m 0 min 0 min 0 W/m 14,6 km/h (3 Bft)
11.05.2015 01:04 13,4 C 11,1 C 78 % 1023,3 hPa 0,0 l/m 0 min 0 min 0 W/m 8,4 km/h (2 Bft)
11.05.2015 01:06 13,4 C 11,1 C 78 % 1023,3 hPa 0,0 l/m 0 min 0 min 0 W/m 10,5 km/h (2 Bft)
11.05.2015 01:08 13,4 C 11,1 C 78 % 1023,2 hPa 0,0 l/m 0 min 0 min 0 W/m 14,6 km/h (3 Bft)
11.05.2015 01:10 13,3 C 11,1 C 78 % 1023,2 hPa 0,0 l/m 0 min 0 min 0 W/m 12,6 km/h (3 Bft)
11.05.2015 01:12 13,3 C 11,1 C 78 % 1023,2 hPa 0,0 l/m 0 min 0 min 0 W/m 10,5 km/h (2 Bft)
11.05.2015 01:14 13,3 C 11,1 C 78 % 1023,2 hPa 0,0 l/m 0 min 0 min 0 W/m 10,5 km/h (2 Bft)
11.05.2015 01:16 13,3 C 11,1 C 78 % 1023,3 hPa 0,0 l/m 0 min 0 min 0 W/m 10,5 km/h (2 Bft)
11.05.2015 01:18 13,3 C 11,1 C 78 % 1023,3 hPa 0,0 l/m 0 min 0 min 0 W/m 12,6 km/h (3 Bft)
11.05.2015 01:20 13,3 C 11,1 C 79 % 1023,3 hPa 0,0 l/m 0 min 0 min 0 W/m 10,5 km/h (2 Bft)
11.05.2015 01:22 13,2 C 11,1 C 79 % 1023,3 hPa 0,0 l/m 0 min 0 min 0 W/m 10,5 km/h (2 Bft)
11.05.2015 01:24 13,2 C 11,1 C 79 % 1023,3 hPa 0,0 l/m 0 min 0 min 0 W/m 8,4 km/h (2 Bft)
11.05.2015 01:26 13,2 C 11,1 C 79 % 1023,2 hPa 0,0 l/m 0 min 0 min 0 W/m 10,5 km/h (2 Bft)
11.05.2015 01:28 13,2 C 11,1 C 79 % 1023,3 hPa 0,0 l/m 0 min 0 min 0 W/m 8,4 km/h (2 Bft)
11.05.2015 01:30 13,1 C 11,1 C 79 % 1023,3 hPa 0,0 l/m 0 min 0 min 0 W/m 10,5 km/h (2 Bft)
11.05.2015 01:32 13,1 C 11,1 C 80 % 1023,3 hPa 0,0 l/m 0 min 0 min 0 W/m 8,4 km/h (2 Bft)
11.05.2015 01:34 13,1 C 11,1 C 79 % 1023,3 hPa 0,0 l/m 0 min 0 min 0 W/m 10,5 km/h (2 Bft)
11.05.2015 01:36 13,1 C 11,1 C 80 % 1023,3 hPa 0,0 l/m 0 min 0 min 0 W/m 8,4 km/h (2 Bft)
11.05.2015 01:38 13,0 C 11,1 C 80 % 1023,3 hPa 0,0 l/m 0 min 0 min 0 W/m 6,3 km/h (2 Bft)
11.05.2015 01:40 13,0 C 11,1 C 80 % 1023,3 hPa 0,0 l/m 0 min 0 min 0 W/m 6,3 km/h (2 Bft)
11.05.2015 01:42 13,0 C 11,1 C 80 % 1023,3 hPa 0,0 l/m 0 min 0 min 0 W/m 6,3 km/h (2 Bft)
11.05.2015 01:44 12,9 C 11,1 C 80 % 1023,3 hPa 0,0 l/m 0 min 0 min 0 W/m 6,3 km/h (2 Bft)
11.05.2015 01:46 12,9 C 11,1 C 80 % 1023,3 hPa 0,0 l/m 0 min 0 min 0 W/m 8,4 km/h (2 Bft)
11.05.2015 01:48 12,9 C 11,1 C 80 % 1023,3 hPa 0,0 l/m 0 min 0 min 0 W/m 6,3 km/h (2 Bft)
11.05.2015 01:50 12,9 C 11,1 C 81 % 1023,4 hPa 0,0 l/m 0 min 0 min 0 W/m 8,4 km/h (2 Bft)
11.05.2015 01:52 12,8 C 11,1 C 81 % 1023,4 hPa 0,0 l/m 0 min 0 min 0 W/m 8,4 km/h (2 Bft)
11.05.2015 01:54 12,8 C 10,6 C 81 % 1023,4 hPa 0,0 l/m 0 min 0 min 0 W/m 8,4 km/h (2 Bft)
11.05.2015 01:56 12,7 C 10,6 C 81 % 1023,4 hPa 0,0 l/m 0 min 0 min 0 W/m 8,4 km/h (2 Bft)
11.05.2015 01:58 12,7 C 10,6 C 81 % 1023,5 hPa 0,0 l/m 0 min 0 min 0 W/m 8,4 km/h (2 Bft)
11.05.2015 02:00 12,7 C 10,6 C 81 % 1023,3 hPa 0,0 l/m 0 min 0 min 0 W/m 8,4 km/h (2 Bft)
11.05.2015 02:02 12,7 C 10,6 C 82 % 1023,4 hPa 0,0 l/m 0 min 0 min 0 W/m 8,4 km/h (2 Bft)
11.05.2015 02:04 12,6 C 10,6 C 82 % 1023,4 hPa 0,0 l/m 0 min 0 min 0 W/m 8,4 km/h (2 Bft)
11.05.2015 02:06 12,6 C 10,6 C 82 % 1023,4 hPa 0,0 l/m 0 min 0 min 0 W/m 8,4 km/h (2 Bft)
11.05.2015 02:08 12,6 C 10,6 C 82 % 1023,4 hPa 0,0 l/m 0 min 0 min 0 W/m 8,4 km/h (2 Bft)
11.05.2015 02:10 12,6 C 10,6 C 82 % 1023,4 hPa 0,0 l/m 0 min 0 min 0 W/m 8,4 km/h (2 Bft)
11.05.2015 02:12 12,6 C 10,6 C 82 % 1023,4 hPa 0,0 l/m 0 min 0 min 0 W/m 8,4 km/h (2 Bft)
11.05.2015 02:14 12,5 C 10,6 C 82 % 1023,4 hPa 0,0 l/m 0 min 0 min 0 W/m 6,3 km/h (2 Bft)
11.05.2015 02:16 12,5 C 10,6 C 82 % 1023,3 hPa 0,0 l/m 0 min 0 min 0 W/m 6,3 km/h (2 Bft)
11.05.2015 02:18 12,4 C 10,6 C 83 % 1023,3 hPa 0,0 l/m 0 min 0 min 0 W/m 6,3 km/h (2 Bft)
11.05.2015 02:20 12,4 C 10,6 C 83 % 1023,2 hPa 0,0 l/m 0 min 0 min 0 W/m 8,4 km/h (2 Bft)
11.05.2015 02:22 12,4 C 10,6 C 83 % 1023,3 hPa 0,0 l/m 0 min 0 min 0 W/m 8,4 km/h (2 Bft)
11.05.2015 02:24 12,4 C 10,6 C 83 % 1023,2 hPa 0,0 l/m 0 min 0 min 0 W/m 8,4 km/h (2 Bft)
11.05.2015 02:26 12,4 C 10,6 C 83 % 1023,2 hPa 0,0 l/m 0 min 0 min 0 W/m 10,5 km/h (2 Bft)
11.05.2015 02:28 12,3 C 10,6 C 83 % 1023,2 hPa 0,0 l/m 0 min 0 min 0 W/m 6,3 km/h (2 Bft)
11.05.2015 02:30 12,3 C 10,6 C 83 % 1023,2 hPa 0,0 l/m 0 min 0 min 0 W/m 4,2 km/h (1 Bft)
11.05.2015 02:32 12,3 C 10,6 C 83 % 1023,1 hPa 0,0 l/m 0 min 0 min 0 W/m 6,3 km/h (2 Bft)
11.05.2015 02:34 12,3 C 10,6 C 83 % 1023,1 hPa 0,0 l/m 0 min 0 min 0 W/m 4,2 km/h (1 Bft)
11.05.2015 02:36 12,3 C 10,6 C 83 % 1023,2 hPa 0,0 l/m 0 min 0 min 0 W/m 10,5 km/h (2 Bft)
11.05.2015 02:38 12,2 C 10,6 C 83 % 1023,1 hPa 0,0 l/m 0 min 0 min 0 W/m 6,3 km/h (2 Bft)
11.05.2015 02:40 12,2 C 10,6 C 83 % 1023,1 hPa 0,0 l/m 0 min 0 min 0 W/m 6,3 km/h (2 Bft)
11.05.2015 02:42 12,2 C 10,6 C 84 % 1023,1 hPa 0,0 l/m 0 min 0 min 0 W/m 8,4 km/h (2 Bft)
11.05.2015 02:44 12,2 C 10,6 C 84 % 1023,2 hPa 0,0 l/m 0 min 0 min 0 W/m 8,4 km/h (2 Bft)
11.05.2015 02:46 12,2 C 10,6 C 84 % 1023,1 hPa 0,0 l/m 0 min 0 min 0 W/m 8,4 km/h (2 Bft)
11.05.2015 02:48 12,2 C 10,6 C 84 % 1023,1 hPa 0,0 l/m 0 min 0 min 0 W/m 6,3 km/h (2 Bft)
11.05.2015 02:50 12,1 C 10,6 C 84 % 1023,1 hPa 0,0 l/m 0 min 0 min 0 W/m 8,4 km/h (2 Bft)
11.05.2015 02:52 12,1 C 10,6 C 84 % 1023,1 hPa 0,0 l/m 0 min 0 min 0 W/m 6,3 km/h (2 Bft)
11.05.2015 02:54 12,1 C 10,6 C 84 % 1023,0 hPa 0,0 l/m 0 min 0 min 0 W/m 10,5 km/h (2 Bft)
11.05.2015 02:56 12,1 C 10,6 C 84 % 1023,1 hPa 0,0 l/m 0 min 0 min 0 W/m 10,5 km/h (2 Bft)
11.05.2015 02:58 12,0 C 10,6 C 85 % 1023,1 hPa 0,0 l/m 0 min 0 min 0 W/m 8,4 km/h (2 Bft)
11.05.2015 03:00 12,0 C 10,6 C 85 % 1023,1 hPa 0,0 l/m 0 min 0 min 0 W/m 8,4 km/h (2 Bft)
11.05.2015 03:02 12,0 C 10,6 C 85 % 1023,0 hPa 0,0 l/m 0 min 0 min 0 W/m 10,5 km/h (2 Bft)
11.05.2015 03:04 11,9 C 10,6 C 85 % 1023,0 hPa 0,0 l/m 0 min 0 min 0 W/m 12,6 km/h (3 Bft)
11.05.2015 03:06 11,9 C 10,6 C 85 % 1023,1 hPa 0,0 l/m 0 min 0 min 0 W/m 8,4 km/h (2 Bft)
11.05.2015 03:08 11,9 C 10,6 C 85 % 1023,1 hPa 0,0 l/m 0 min 0 min 0 W/m 10,5 km/h (2 Bft)
11.05.2015 03:10 11,9 C 10,6 C 85 % 1023,1 hPa 0,0 l/m 0 min 0 min 0 W/m 8,4 km/h (2 Bft)
11.05.2015 03:12 11,9 C 10,6 C 85 % 1023,1 hPa 0,0 l/m 0 min 0 min 0 W/m 10,5 km/h (2 Bft)
11.05.2015 03:14 11,9 C 10,6 C 85 % 1023,1 hPa 0,0 l/m 0 min 0 min 0 W/m 10,5 km/h (2 Bft)
11.05.2015 03:16 11,9 C 10,6 C 86 % 1023,1 hPa 0,0 l/m 0 min 0 min 0 W/m 8,4 km/h (2 Bft)
11.05.2015 03:18 11,9 C 10,6 C 86 % 1023,0 hPa 0,0 l/m 0 min 0 min 0 W/m 8,4 km/h (2 Bft)
11.05.2015 03:20 11,9 C 10,6 C 86 % 1023,1 hPa 0,0 l/m 0 min 0 min 0 W/m 12,6 km/h (3 Bft)
11.05.2015 03:22 11,9 C 10,6 C 86 % 1023,1 hPa 0,0 l/m 0 min 0 min 0 W/m 10,5 km/h (2 Bft)
11.05.2015 03:24 11,9 C 10,6 C 86 % 1023,1 hPa 0,0 l/m 0 min 0 min 0 W/m 8,4 km/h (2 Bft)
11.05.2015 03:26 11,8 C 10,6 C 85 % 1023,0 hPa 0,0 l/m 0 min 0 min 0 W/m 8,4 km/h (2 Bft)
11.05.2015 03:28 11,8 C 10,6 C 85 % 1023,0 hPa 0,0 l/m 0 min 0 min 0 W/m 8,4 km/h (2 Bft)
11.05.2015 03:30 11,8 C 10,6 C 86 % 1023,0 hPa 0,0 l/m 0 min 0 min 0 W/m 10,5 km/h (2 Bft)
11.05.2015 03:32 11,8 C 10,6 C 86 % 1023,0 hPa 0,0 l/m 0 min 0 min 0 W/m 10,5 km/h (2 Bft)
11.05.2015 03:34 11,8 C 10,6 C 86 % 1023,0 hPa 0,0 l/m 0 min 0 min 0 W/m 8,4 km/h (2 Bft)
11.05.2015 03:36 11,8 C 10,6 C 86 % 1023,0 hPa 0,0 l/m 0 min 0 min 0 W/m 10,5 km/h (2 Bft)
11.05.2015 03:38 11,8 C 10,6 C 86 % 1023,0 hPa 0,0 l/m 0 min 0 min 0 W/m 8,4 km/h (2 Bft)
11.05.2015 03:40 11,8 C 10,6 C 86 % 1022,9 hPa 0,0 l/m 0 min 0 min 0 W/m 10,5 km/h (2 Bft)
11.05.2015 03:42 11,8 C 10,6 C 86 % 1022,9 hPa 0,0 l/m 0 min 0 min 0 W/m 8,4 km/h (2 Bft)
11.05.2015 03:44 11,8 C 10,6 C 86 % 1022,9 hPa 0,0 l/m 0 min 0 min 0 W/m 8,4 km/h (2 Bft)
11.05.2015 03:46 11,8 C 10,6 C 86 % 1022,9 hPa 0,0 l/m 0 min 0 min 0 W/m 10,5 km/h (2 Bft)
11.05.2015 03:48 11,8 C 10,6 C 86 % 1022,8 hPa 0,0 l/m 0 min 0 min 0 W/m 8,4 km/h (2 Bft)
11.05.2015 03:50 11,8 C 10,6 C 86 % 1022,8 hPa 0,0 l/m 0 min 0 min 0 W/m 10,5 km/h (2 Bft)
11.05.2015 03:52 11,8 C 10,6 C 86 % 1022,8 hPa 0,0 l/m 0 min 0 min 0 W/m 8,4 km/h (2 Bft)
11.05.2015 03:54 11,8 C 10,6 C 86 % 1022,8 hPa 0,0 l/m 0 min 0 min 0 W/m 8,4 km/h (2 Bft)
11.05.2015 03:56 11,8 C 10,6 C 86 % 1022,9 hPa 0,0 l/m 0 min 0 min 0 W/m 10,5 km/h (2 Bft)
11.05.2015 03:58 11,8 C 10,6 C 86 % 1022,9 hPa 0,0 l/m 0 min 0 min 0 W/m 10,5 km/h (2 Bft)
11.05.2015 04:00 11,8 C 10,6 C 86 % 1022,9 hPa 0,0 l/m 0 min 0 min 0 W/m 10,5 km/h (2 Bft)
11.05.2015 04:02 11,8 C 10,6 C 86 % 1022,8 hPa 0,0 l/m 0 min 0 min 0 W/m 6,3 km/h (2 Bft)
11.05.2015 04:04 11,8 C 10,6 C 86 % 1022,8 hPa 0,0 l/m 0 min 0 min 0 W/m 8,4 km/h (2 Bft)
11.05.2015 04:06 11,8 C 10,6 C 86 % 1022,7 hPa 0,0 l/m 0 min 0 min 0 W/m 10,5 km/h (2 Bft)
11.05.2015 04:08 11,8 C 10,6 C 86 % 1022,7 hPa 0,0 l/m 0 min 0 min 0 W/m 10,5 km/h (2 Bft)
11.05.2015 04:10 11,8 C 10,6 C 86 % 1022,8 hPa 0,0 l/m 0 min 0 min 0 W/m 10,5 km/h (2 Bft)
11.05.2015 04:12 11,8 C 10,6 C 86 % 1022,7 hPa 0,0 l/m 0 min 0 min 0 W/m 8,4 km/h (2 Bft)
11.05.2015 04:14 11,7 C 10,6 C 86 % 1022,7 hPa 0,0 l/m 0 min 0 min 0 W/m 10,5 km/h (2 Bft)
11.05.2015 04:16 11,7 C 10,6 C 86 % 1022,7 hPa 0,0 l/m 0 min 0 min 0 W/m 10,5 km/h (2 Bft)
11.05.2015 04:18 11,7 C 10,6 C 86 % 1022,8 hPa 0,0 l/m 0 min 0 min 0 W/m 10,5 km/h (2 Bft)
11.05.2015 04:20 11,7 C 10,6 C 86 % 1022,8 hPa 0,0 l/m 0 min 0 min 0 W/m 10,5 km/h (2 Bft)
11.05.2015 04:22 11,7 C 10,6 C 86 % 1022,8 hPa 0,0 l/m 0 min 0 min 0 W/m 12,6 km/h (3 Bft)
11.05.2015 04:24 11,7 C 10,6 C 86 % 1022,8 hPa 0,0 l/m 0 min 0 min 0 W/m 8,4 km/h (2 Bft)
11.05.2015 04:26 11,7 C 10,6 C 86 % 1022,7 hPa 0,0 l/m 0 min 0 min 0 W/m 10,5 km/h (2 Bft)
11.05.2015 04:28 11,7 C 10,6 C 86 % 1022,6 hPa 0,0 l/m 0 min 0 min 0 W/m 10,5 km/h (2 Bft)
11.05.2015 04:30 11,7 C 10,6 C 86 % 1022,6 hPa 0,0 l/m 0 min 0 min 0 W/m 6,3 km/h (2 Bft)
11.05.2015 04:32 11,7 C 10,6 C 86 % 1022,6 hPa 0,0 l/m 0 min 0 min 0 W/m 8,4 km/h (2 Bft)
11.05.2015 04:34 11,6 C 10,6 C 86 % 1022,5 hPa 0,0 l/m 0 min 0 min 0 W/m 10,5 km/h (2 Bft)
11.05.2015 04:36 11,6 C 10,6 C 86 % 1022,6 hPa 0,0 l/m 0 min 0 min 0 W/m 6,3 km/h (2 Bft)
11.05.2015 04:38 11,6 C 10,6 C 86 % 1022,5 hPa 0,0 l/m 0 min 0 min 0 W/m 8,4 km/h (2 Bft)
11.05.2015 04:40 11,6 C 10,6 C 86 % 1022,5 hPa 0,0 l/m 0 min 0 min 0 W/m 12,6 km/h (3 Bft)
11.05.2015 04:42 11,6 C 10,6 C 86 % 1022,4 hPa 0,0 l/m 0 min 0 min 0 W/m 14,6 km/h (3 Bft)
11.05.2015 04:44 11,6 C 10,6 C 86 % 1022,5 hPa 0,0 l/m 0 min 0 min 0 W/m 10,5 km/h (2 Bft)
11.05.2015 04:46 11,6 C 10,6 C 86 % 1022,6 hPa 0,0 l/m 0 min 0 min 0 W/m 8,4 km/h (2 Bft)
11.05.2015 04:48 11,6 C 10,6 C 86 % 1022,5 hPa 0,0 l/m 0 min 0 min 0 W/m 8,4 km/h (2 Bft)
11.05.2015 04:50 11,6 C 10,6 C 86 % 1022,5 hPa 0,0 l/m 0 min 0 min 0 W/m 10,5 km/h (2 Bft)
11.05.2015 04:52 11,5 C 10,6 C 86 % 1022,5 hPa 0,0 l/m 0 min 0 min 0 W/m 10,5 km/h (2 Bft)
11.05.2015 04:54 11,5 C 10,6 C 86 % 1022,5 hPa 0,0 l/m 0 min 0 min 0 W/m 14,6 km/h (3 Bft)
11.05.2015 04:56 11,5 C 10,6 C 86 % 1022,5 hPa 0,0 l/m 0 min 0 min 0 W/m 10,5 km/h (2 Bft)
11.05.2015 04:58 11,5 C 10,6 C 86 % 1022,5 hPa 0,0 l/m 0 min 0 min 0 W/m 8,4 km/h (2 Bft)
11.05.2015 05:00 11,5 C 10,6 C 87 % 1022,5 hPa 0,0 l/m 0 min 0 min 0 W/m 10,5 km/h (2 Bft)
11.05.2015 05:02 11,5 C 10,6 C 87 % 1022,5 hPa 0,0 l/m 0 min 0 min 0 W/m 14,6 km/h (3 Bft)
11.05.2015 05:04 11,5 C 10,6 C 87 % 1022,5 hPa 0,0 l/m 0 min 0 min 0 W/m 8,4 km/h (2 Bft)
11.05.2015 05:06 11,5 C 10,6 C 87 % 1022,5 hPa 0,0 l/m 0 min 0 min 0 W/m 12,6 km/h (3 Bft)
11.05.2015 05:08 11,5 C 10,6 C 87 % 1022,5 hPa 0,0 l/m 0 min 0 min 0 W/m 8,4 km/h (2 Bft)
11.05.2015 05:10 11,5 C 10,6 C 87 % 1022,6 hPa 0,0 l/m 0 min 0 min 0 W/m 8,4 km/h (2 Bft)
11.05.2015 05:12 11,5 C 10,6 C 87 % 1022,6 hPa 0,0 l/m 0 min 0 min 0 W/m 8,4 km/h (2 Bft)
11.05.2015 05:14 11,5 C 10,6 C 87 % 1022,6 hPa 0,0 l/m 0 min 0 min 0 W/m 14,6 km/h (3 Bft)
11.05.2015 05:16 11,5 C 10,6 C 87 % 1022,6 hPa 0,0 l/m 0 min 0 min 0 W/m 8,4 km/h (2 Bft)
11.05.2015 05:18 11,5 C 10,6 C 87 % 1022,6 hPa 0,0 l/m 0 min 0 min 0 W/m 14,6 km/h (3 Bft)
11.05.2015 05:20 11,5 C 10,6 C 86 % 1022,5 hPa 0,0 l/m 0 min 0 min 0 W/m 8,4 km/h (2 Bft)
11.05.2015 05:22 11,5 C 10,6 C 86 % 1022,5 hPa 0,0 l/m 0 min 0 min 0 W/m 8,4 km/h (2 Bft)
11.05.2015 05:24 11,5 C 10,6 C 86 % 1022,5 hPa 0,0 l/m 0 min 0 min 0 W/m 12,6 km/h (3 Bft)
11.05.2015 05:26 11,5 C 10,6 C 86 % 1022,5 hPa 0,0 l/m 0 min 0 min 0 W/m 8,4 km/h (2 Bft)
11.05.2015 05:28 11,5 C 10,6 C 86 % 1022,5 hPa 0,0 l/m 0 min 0 min 0 W/m 10,5 km/h (2 Bft)
11.05.2015 05:30 11,5 C 10,6 C 86 % 1022,5 hPa 0,0 l/m 0 min 0 min 0 W/m 12,6 km/h (3 Bft)
11.05.2015 05:32 11,5 C 10,6 C 86 % 1022,5 hPa 0,0 l/m 0 min 0 min 0 W/m 12,6 km/h (3 Bft)
11.05.2015 05:34 11,5 C 10,6 C 86 % 1022,5 hPa 0,0 l/m 0 min 0 min 0 W/m 12,6 km/h (3 Bft)
11.05.2015 05:36 11,5 C 10,6 C 86 % 1022,4 hPa 0,0 l/m 0 min 0 min 0 W/m 14,6 km/h (3 Bft)
11.05.2015 05:38 11,6 C 10,6 C 86 % 1022,4 hPa 0,0 l/m 0 min 0 min 0 W/m 10,5 km/h (2 Bft)
11.05.2015 05:40 11,6 C 10,6 C 86 % 1022,4 hPa 0,0 l/m 0 min 0 min 0 W/m 18,8 km/h (3 Bft)
11.05.2015 05:42 11,6 C 10,6 C 86 % 1022,3 hPa 0,0 l/m 0 min 0 min 0 W/m 12,6 km/h (3 Bft)
11.05.2015 05:44 11,6 C 10,6 C 86 % 1022,2 hPa 0,0 l/m 0 min 0 min 0 W/m 14,6 km/h (3 Bft)
11.05.2015 05:46 11,6 C 10,6 C 86 % 1022,2 hPa 0,0 l/m 0 min 0 min 0 W/m 12,6 km/h (3 Bft)
11.05.2015 05:48 11,6 C 10,6 C 86 % 1022,1 hPa 0,0 l/m 0 min 0 min 0 W/m 14,6 km/h (3 Bft)
11.05.2015 05:50 11,6 C 10,6 C 86 % 1022,2 hPa 0,0 l/m 0 min 0 min 0 W/m 14,6 km/h (3 Bft)
11.05.2015 05:52 11,6 C 10,6 C 86 % 1022,2 hPa 0,0 l/m 0 min 0 min 0 W/m 14,6 km/h (3 Bft)
11.05.2015 05:54 11,6 C 10,6 C 86 % 1022,2 hPa 0,0 l/m 0 min 0 min 2 W/m 18,8 km/h (3 Bft)
11.05.2015 05:56 11,6 C 10,6 C 86 % 1022,2 hPa 0,0 l/m 0 min 0 min 5 W/m 16,7 km/h (3 Bft)
11.05.2015 05:58 11,6 C 10,6 C 86 % 1022,2 hPa 0,0 l/m 0 min 0 min 5 W/m 16,7 km/h (3 Bft)
11.05.2015 06:00 11,6 C 10,6 C 86 % 1022,2 hPa 0,0 l/m 0 min 0 min 7 W/m 14,6 km/h (3 Bft)
11.05.2015 06:02 11,7 C 10,6 C 86 % 1022,2 hPa 0,0 l/m 0 min 0 min 7 W/m 18,8 km/h (3 Bft)
11.05.2015 06:06 11,7 C 10,6 C 86 % 1022,2 hPa 0,0 l/m 0 min 0 min 10 W/m 14,6 km/h (3 Bft)
11.05.2015 06:08 11,7 C 10,6 C 86 % 1022,3 hPa 0,0 l/m 0 min 0 min 12 W/m 14,6 km/h (3 Bft)
11.05.2015 06:10 11,7 C 10,6 C 85 % 1022,2 hPa 0,0 l/m 0 min 0 min 13 W/m 18,8 km/h (3 Bft)
11.05.2015 06:12 11,7 C 10,6 C 85 % 1022,2 hPa 0,0 l/m 0 min 0 min 16 W/m 14,6 km/h (3 Bft)
11.05.2015 06:14 11,7 C 10,6 C 85 % 1022,2 hPa 0,0 l/m 0 min 0 min 18 W/m 14,6 km/h (3 Bft)
11.05.2015 06:16 11,7 C 10,6 C 85 % 1022,2 hPa 0,0 l/m 0 min 0 min 20 W/m 16,7 km/h (3 Bft)
11.05.2015 06:18 11,7 C 10,6 C 85 % 1022,2 hPa 0,0 l/m 0 min 0 min 22 W/m 16,7 km/h (3 Bft)
11.05.2015 06:20 11,7 C 10,6 C 85 % 1022,2 hPa 0,0 l/m 0 min 0 min 24 W/m 12,6 km/h (3 Bft)
11.05.2015 06:22 11,7 C 10,6 C 85 % 1022,3 hPa 0,0 l/m 0 min 0 min 26 W/m 12,6 km/h (3 Bft)
11.05.2015 06:24 11,7 C 10,6 C 85 % 1022,4 hPa 0,0 l/m 0 min 0 min 27 W/m 14,6 km/h (3 Bft)
11.05.2015 06:26 11,7 C 10,6 C 85 % 1022,4 hPa 0,0 l/m 0 min 0 min 28 W/m 12,6 km/h (3 Bft)
11.05.2015 06:28 11,7 C 10,6 C 85 % 1022,3 hPa 0,0 l/m 0 min 0 min 30 W/m 14,6 km/h (3 Bft)
11.05.2015 06:30 11,8 C 10,6 C 85 % 1022,3 hPa 0,0 l/m 0 min 0 min 32 W/m 18,8 km/h (3 Bft)
11.05.2015 06:32 11,8 C 10,6 C 85 % 1022,2 hPa 0,0 l/m 0 min 0 min 33 W/m 18,8 km/h (3 Bft)
11.05.2015 06:34 11,8 C 10,6 C 85 % 1022,1 hPa 0,0 l/m 0 min 0 min 36 W/m 16,7 km/h (3 Bft)
11.05.2015 06:36 11,8 C 10,6 C 85 % 1022,0 hPa 0,0 l/m 0 min 0 min 38 W/m 23,0 km/h (4 Bft)
11.05.2015 06:38 11,8 C 10,6 C 85 % 1022,0 hPa 0,0 l/m 0 min 0 min 40 W/m 16,7 km/h (3 Bft)
11.05.2015 06:40 11,8 C 10,6 C 85 % 1021,9 hPa 0,0 l/m 0 min 0 min 43 W/m 20,9 km/h (4 Bft)
11.05.2015 06:42 11,8 C 10,6 C 85 % 1021,9 hPa 0,0 l/m 0 min 0 min 46 W/m 18,8 km/h (3 Bft)
11.05.2015 06:44 11,9 C 10,6 C 85 % 1022,0 hPa 0,0 l/m 0 min 0 min 49 W/m 12,6 km/h (3 Bft)
11.05.2015 06:46 11,9 C 10,6 C 85 % 1022,0 hPa 0,0 l/m 0 min 0 min 50 W/m 14,6 km/h (3 Bft)
11.05.2015 06:48 11,9 C 10,6 C 85 % 1022,0 hPa 0,0 l/m 0 min 0 min 49 W/m 14,6 km/h (3 Bft)
11.05.2015 06:50 11,9 C 10,6 C 85 % 1022,1 hPa 0,0 l/m 0 min 0 min 49 W/m 16,7 km/h (3 Bft)
11.05.2015 06:52 11,9 C 10,6 C 85 % 1022,0 hPa 0,0 l/m 0 min 0 min 48 W/m 20,9 km/h (4 Bft)
11.05.2015 06:54 12,0 C 10,6 C 85 % 1022,0 hPa 0,0 l/m 0 min 0 min 47 W/m 14,6 km/h (3 Bft)
11.05.2015 06:56 12,0 C 10,6 C 85 % 1022,0 hPa 0,0 l/m 0 min 0 min 47 W/m 10,5 km/h (2 Bft)
11.05.2015 06:58 12,0 C 10,6 C 85 % 1021,9 hPa 0,0 l/m 0 min 0 min 49 W/m 18,8 km/h (3 Bft)
11.05.2015 07:00 12,1 C 10,6 C 84 % 1021,9 hPa 0,0 l/m 0 min 0 min 49 W/m 18,8 km/h (3 Bft)
11.05.2015 07:02 12,1 C 10,6 C 84 % 1021,9 hPa 0,0 l/m 0 min 0 min 53 W/m 18,8 km/h (3 Bft)
11.05.2015 07:04 12,1 C 10,6 C 84 % 1021,9 hPa 0,0 l/m 0 min 0 min 56 W/m 12,6 km/h (3 Bft)
11.05.2015 07:06 12,1 C 10,6 C 84 % 1022,0 hPa 0,0 l/m 0 min 0 min 61 W/m 16,7 km/h (3 Bft)
11.05.2015 07:08 12,2 C 10,6 C 84 % 1022,0 hPa 0,0 l/m 0 min 0 min 63 W/m 18,8 km/h (3 Bft)
11.05.2015 07:10 12,2 C 10,6 C 84 % 1022,0 hPa 0,0 l/m 0 min 0 min 66 W/m 14,6 km/h (3 Bft)
11.05.2015 07:12 12,2 C 11,1 C 84 % 1022,0 hPa 0,0 l/m 0 min 0 min 69 W/m 14,6 km/h (3 Bft)
11.05.2015 07:14 12,2 C 11,1 C 84 % 1022,0 hPa 0,0 l/m 0 min 0 min 72 W/m 16,7 km/h (3 Bft)
11.05.2015 07:16 12,2 C 11,1 C 84 % 1022,0 hPa 0,0 l/m 0 min 0 min 76 W/m 14,6 km/h (3 Bft)
11.05.2015 07:18 12,3 C 11,1 C 84 % 1022,1 hPa 0,0 l/m 0 min 0 min 78 W/m 14,6 km/h (3 Bft)
11.05.2015 07:20 12,3 C 11,1 C 84 % 1022,0 hPa 0,0 l/m 0 min 0 min 83 W/m 23,0 km/h (4 Bft)
11.05.2015 07:22 12,3 C 11,1 C 84 % 1022,0 hPa 0,0 l/m 0 min 0 min 86 W/m 16,7 km/h (3 Bft)
11.05.2015 07:24 12,3 C 11,1 C 83 % 1022,0 hPa 0,0 l/m 0 min 0 min 89 W/m 14,6 km/h (3 Bft)
11.05.2015 07:26 12,4 C 11,1 C 84 % 1021,9 hPa 0,0 l/m 0 min 0 min 98 W/m 20,9 km/h (4 Bft)
11.05.2015 07:28 12,4 C 11,1 C 84 % 1021,8 hPa 0,0 l/m 0 min 0 min 108 W/m 18,8 km/h (3 Bft)
11.05.2015 07:30 12,4 C 11,1 C 84 % 1021,9 hPa 0,0 l/m 2 min 0 min 119 W/m 18,8 km/h (3 Bft)
11.05.2015 07:32 12,4 C 11,1 C 83 % 1021,9 hPa 0,0 l/m 2 min 0 min 121 W/m 12,6 km/h (3 Bft)
11.05.2015 07:34 12,5 C 11,1 C 83 % 1021,9 hPa 0,0 l/m 2 min 0 min 123 W/m 14,6 km/h (3 Bft)
11.05.2015 07:36 12,5 C 11,1 C 83 % 1022,1 hPa 0,0 l/m 2 min 0 min 131 W/m 18,8 km/h (3 Bft)
11.05.2015 07:38 12,6 C 11,1 C 83 % 1022,1 hPa 0,0 l/m 0 min 0 min 121 W/m 14,6 km/h (3 Bft)
11.05.2015 07:40 12,6 C 11,1 C 83 % 1022,0 hPa 0,0 l/m 0 min 0 min 124 W/m 16,7 km/h (3 Bft)
11.05.2015 07:42 12,6 C 11,1 C 83 % 1022,0 hPa 0,0 l/m 0 min 0 min 120 W/m 16,7 km/h (3 Bft)
11.05.2015 07:44 12,6 C 11,1 C 83 % 1022,0 hPa 0,0 l/m 0 min 0 min 130 W/m 14,6 km/h (3 Bft)
11.05.2015 07:46 12,7 C 11,1 C 83 % 1022,0 hPa 0,0 l/m 2 min 0 min 137 W/m 16,7 km/h (3 Bft)
11.05.2015 07:48 12,7 C 11,1 C 83 % 1022,0 hPa 0,0 l/m 2 min 0 min 139 W/m 18,8 km/h (3 Bft)
11.05.2015 07:50 12,7 C 11,1 C 83 % 1022,0 hPa 0,0 l/m 2 min 0 min 147 W/m 20,9 km/h (4 Bft)
11.05.2015 07:52 12,8 C 11,7 C 83 % 1022,0 hPa 0,0 l/m 2 min 0 min 187 W/m 12,6 km/h (3 Bft)
11.05.2015 07:54 12,8 C 11,7 C 83 % 1022,0 hPa 0,0 l/m 2 min 0 min 195 W/m 16,7 km/h (3 Bft)
11.05.2015 07:56 12,9 C 11,7 C 83 % 1022,1 hPa 0,0 l/m 2 min 0 min 168 W/m 14,6 km/h (3 Bft)
11.05.2015 07:58 12,9 C 11,7 C 83 % 1022,1 hPa 0,0 l/m 2 min 0 min 191 W/m 16,7 km/h (3 Bft)
11.05.2015 08:00 13,0 C 11,7 C 83 % 1022,1 hPa 0,0 l/m 2 min 0 min 167 W/m 10,5 km/h (2 Bft)
11.05.2015 08:02 13,1 C 11,7 C 83 % 1022,0 hPa 0,0 l/m 2 min 0 min 172 W/m 18,8 km/h (3 Bft)
11.05.2015 08:04 13,1 C 11,7 C 83 % 1022,0 hPa 0,0 l/m 2 min 0 min 194 W/m 20,9 km/h (4 Bft)
11.05.2015 08:06 13,1 C 11,7 C 83 % 1022,0 hPa 0,0 l/m 2 min 0 min 202 W/m 14,6 km/h (3 Bft)
11.05.2015 08:08 13,2 C 11,7 C 83 % 1022,0 hPa 0,0 l/m 2 min 0 min 181 W/m 20,9 km/h (4 Bft)
11.05.2015 08:10 13,3 C 11,7 C 82 % 1022,0 hPa 0,0 l/m 2 min 0 min 211 W/m 23,0 km/h (4 Bft)
11.05.2015 08:12 13,3 C 11,7 C 82 % 1022,0 hPa 0,0 l/m 2 min 0 min 231 W/m 25,1 km/h (4 Bft)
11.05.2015 08:14 13,4 C 12,2 C 82 % 1021,9 hPa 0,0 l/m 2 min 0 min 247 W/m 14,6 km/h (3 Bft)
11.05.2015 08:16 13,4 C 12,2 C 82 % 1022,0 hPa 0,0 l/m 2 min 0 min 255 W/m 16,7 km/h (3 Bft)
11.05.2015 08:18 13,5 C 12,2 C 82 % 1022,0 hPa 0,0 l/m 2 min 0 min 251 W/m 14,6 km/h (3 Bft)
11.05.2015 08:20 13,6 C 12,2 C 82 % 1021,9 hPa 0,0 l/m 2 min 0 min 249 W/m 20,9 km/h (4 Bft)
11.05.2015 08:22 13,7 C 12,2 C 82 % 1021,9 hPa 0,0 l/m 2 min 0 min 248 W/m 20,9 km/h (4 Bft)
11.05.2015 08:24 13,7 C 12,2 C 82 % 1022,0 hPa 0,0 l/m 2 min 0 min 252 W/m 14,6 km/h (3 Bft)
11.05.2015 08:26 13,8 C 12,2 C 81 % 1021,9 hPa 0,0 l/m 2 min 0 min 240 W/m 23,0 km/h (4 Bft)
11.05.2015 08:28 13,9 C 12,2 C 81 % 1021,9 hPa 0,0 l/m 2 min 0 min 233 W/m 18,8 km/h (3 Bft)
11.05.2015 08:30 14,0 C 12,8 C 81 % 1022,0 hPa 0,0 l/m 2 min 0 min 237 W/m 18,8 km/h (3 Bft)
11.05.2015 08:32 14,1 C 12,8 C 81 % 1021,9 hPa 0,0 l/m 2 min 0 min 243 W/m 23,0 km/h (4 Bft)
11.05.2015 08:34 14,2 C 12,8 C 81 % 1021,9 hPa 0,0 l/m 2 min 0 min 244 W/m 20,9 km/h (4 Bft)
11.05.2015 08:36 14,2 C 12,8 C 81 % 1021,9 hPa 0,0 l/m 2 min 0 min 235 W/m 12,6 km/h (3 Bft)
11.05.2015 08:38 14,2 C 12,8 C 80 % 1022,0 hPa 0,0 l/m 2 min 0 min 221 W/m 16,7 km/h (3 Bft)
11.05.2015 08:40 14,3 C 12,8 C 80 % 1021,9 hPa 0,0 l/m 2 min 0 min 237 W/m 20,9 km/h (4 Bft)
11.05.2015 08:42 14,4 C 12,8 C 80 % 1021,9 hPa 0,0 l/m 2 min 0 min 222 W/m 16,7 km/h (3 Bft)
11.05.2015 08:44 14,5 C 12,8 C 79 % 1021,9 hPa 0,0 l/m 2 min 0 min 217 W/m 12,6 km/h (3 Bft)
11.05.2015 08:46 14,6 C 12,8 C 79 % 1021,9 hPa 0,0 l/m 2 min 0 min 239 W/m 18,8 km/h (3 Bft)
11.05.2015 08:48 14,7 C 12,8 C 79 % 1022,0 hPa 0,0 l/m 2 min 0 min 238 W/m 16,7 km/h (3 Bft)
11.05.2015 08:50 14,7 C 12,8 C 79 % 1022,0 hPa 0,0 l/m 2 min 0 min 221 W/m 18,8 km/h (3 Bft)
11.05.2015 08:52 14,8 C 12,8 C 79 % 1022,0 hPa 0,0 l/m 2 min 0 min 238 W/m 14,6 km/h (3 Bft)
11.05.2015 08:54 14,8 C 12,8 C 79 % 1022,0 hPa 0,0 l/m 2 min 0 min 273 W/m 16,7 km/h (3 Bft)
11.05.2015 08:56 14,9 C 12,8 C 78 % 1022,0 hPa 0,0 l/m 2 min 0 min 287 W/m 23,0 km/h (4 Bft)
11.05.2015 08:58 14,9 C 12,8 C 78 % 1022,0 hPa 0,0 l/m 2 min 0 min 309 W/m 18,8 km/h (3 Bft)
11.05.2015 09:00 15,1 C 12,8 C 78 % 1022,0 hPa 0,0 l/m 2 min 0 min 319 W/m 18,8 km/h (3 Bft)
11.05.2015 09:02 15,1 C 12,8 C 78 % 1021,9 hPa 0,0 l/m 2 min 0 min 348 W/m 20,9 km/h (4 Bft)
11.05.2015 09:04 15,2 C 12,8 C 78 % 1021,9 hPa 0,0 l/m 2 min 0 min 283 W/m 16,7 km/h (3 Bft)
11.05.2015 09:06 15,3 C 12,8 C 77 % 1021,9 hPa 0,0 l/m 2 min 0 min 327 W/m 20,9 km/h (4 Bft)
11.05.2015 09:08 15,4 C 13,3 C 77 % 1021,8 hPa 0,0 l/m 2 min 0 min 346 W/m 23,0 km/h (4 Bft)
11.05.2015 09:10 15,5 C 13,3 C 77 % 1021,8 hPa 0,0 l/m 2 min 0 min 333 W/m 23,0 km/h (4 Bft)
11.05.2015 09:12 15,6 C 13,3 C 77 % 1021,8 hPa 0,0 l/m 2 min 0 min 317 W/m 16,7 km/h (3 Bft)
11.05.2015 09:14 15,7 C 13,3 C 77 % 1021,7 hPa 0,0 l/m 2 min 0 min 329 W/m 14,6 km/h (3 Bft)
11.05.2015 09:16 15,8 C 13,3 C 77 % 1021,8 hPa 0,0 l/m 2 min 0 min 335 W/m 18,8 km/h (3 Bft)
11.05.2015 09:18 15,9 C 13,3 C 76 % 1021,8 hPa 0,0 l/m 2 min 0 min 357 W/m 18,8 km/h (3 Bft)
11.05.2015 09:20 15,9 C 13,3 C 76 % 1021,8 hPa 0,0 l/m 2 min 0 min 348 W/m 25,1 km/h (4 Bft)
11.05.2015 09:22 16,1 C 13,3 C 76 % 1021,8 hPa 0,0 l/m 2 min 0 min 334 W/m 20,9 km/h (4 Bft)
11.05.2015 09:24 16,1 C 13,3 C 75 % 1021,8 hPa 0,0 l/m 2 min 0 min 325 W/m 25,1 km/h (4 Bft)
11.05.2015 09:26 16,2 C 13,9 C 75 % 1021,8 hPa 0,0 l/m 2 min 0 min 332 W/m 23,0 km/h (4 Bft)
11.05.2015 09:28 16,3 C 13,9 C 74 % 1021,7 hPa 0,0 l/m 2 min 0 min 311 W/m 23,0 km/h (4 Bft)
11.05.2015 09:30 16,3 C 13,9 C 74 % 1021,7 hPa 0,0 l/m 2 min 0 min 331 W/m 18,8 km/h (3 Bft)
11.05.2015 09:32 16,4 C 13,9 C 74 % 1021,7 hPa 0,0 l/m 2 min 0 min 351 W/m 18,8 km/h (3 Bft)
11.05.2015 09:34 16,5 C 13,9 C 74 % 1021,7 hPa 0,0 l/m 2 min 0 min 379 W/m 20,9 km/h (4 Bft)
11.05.2015 09:36 16,6 C 13,9 C 74 % 1021,7 hPa 0,0 l/m 2 min 0 min 399 W/m 25,1 km/h (4 Bft)
11.05.2015 09:38 16,7 C 14,4 C 74 % 1021,7 hPa 0,0 l/m 2 min 0 min 375 W/m 20,9 km/h (4 Bft)
11.05.2015 09:40 16,7 C 14,4 C 74 % 1021,8 hPa 0,0 l/m 2 min 0 min 367 W/m 16,7 km/h (3 Bft)
11.05.2015 09:42 16,8 C 14,4 C 74 % 1021,8 hPa 0,0 l/m 2 min 0 min 371 W/m 16,7 km/h (3 Bft)
11.05.2015 09:44 16,9 C 14,4 C 74 % 1021,8 hPa 0,0 l/m 2 min 0 min 396 W/m 27,2 km/h (4 Bft)
11.05.2015 09:46 17,1 C 14,4 C 74 % 1021,8 hPa 0,0 l/m 2 min 0 min 389 W/m 18,8 km/h (3 Bft)
11.05.2015 09:48 17,1 C 15,0 C 73 % 1021,8 hPa 0,0 l/m 2 min 0 min 453 W/m 18,8 km/h (3 Bft)
11.05.2015 09:50 17,2 C 15,0 C 73 % 1021,7 hPa 0,0 l/m 2 min 0 min 505 W/m 18,8 km/h (3 Bft)
11.05.2015 09:52 17,3 C 15,0 C 73 % 1021,7 hPa 0,0 l/m 2 min 0 min 510 W/m 18,8 km/h (3 Bft)
11.05.2015 09:54 17,4 C 15,0 C 73 % 1021,6 hPa 0,0 l/m 2 min 0 min 491 W/m 20,9 km/h (4 Bft)
11.05.2015 09:56 17,6 C 15,0 C 72 % 1021,6 hPa 0,0 l/m 2 min 0 min 502 W/m 16,7 km/h (3 Bft)
11.05.2015 09:58 17,7 C 15,6 C 72 % 1021,7 hPa 0,0 l/m 2 min 0 min 468 W/m 18,8 km/h (3 Bft)
11.05.2015 10:00 17,8 C 15,6 C 72 % 1021,7 hPa 0,0 l/m 2 min 0 min 383 W/m 25,1 km/h (4 Bft)
11.05.2015 10:02 17,9 C 15,6 C 71 % 1021,6 hPa 0,0 l/m 2 min 0 min 401 W/m 23,0 km/h (4 Bft)
11.05.2015 10:04 18,0 C 15,6 C 71 % 1021,6 hPa 0,0 l/m 2 min 0 min 459 W/m 16,7 km/h (3 Bft)
11.05.2015 10:06 18,1 C 15,6 C 71 % 1021,6 hPa 0,0 l/m 2 min 0 min 493 W/m 20,9 km/h (4 Bft)
11.05.2015 10:08 18,2 C 15,6 C 70 % 1021,6 hPa 0,0 l/m 2 min 0 min 484 W/m 23,0 km/h (4 Bft)
11.05.2015 10:10 18,3 C 15,6 C 70 % 1021,5 hPa 0,0 l/m 2 min 0 min 478 W/m 16,7 km/h (3 Bft)
11.05.2015 10:12 18,3 C 15,6 C 70 % 1021,5 hPa 0,0 l/m 2 min 0 min 509 W/m 18,8 km/h (3 Bft)
11.05.2015 10:14 18,4 C 15,6 C 70 % 1021,5 hPa 0,0 l/m 2 min 0 min 514 W/m 20,9 km/h (4 Bft)
11.05.2015 10:16 18,5 C 15,6 C 70 % 1021,5 hPa 0,0 l/m 2 min 0 min 560 W/m 18,8 km/h (3 Bft)
11.05.2015 10:18 18,7 C 16,1 C 69 % 1021,6 hPa 0,0 l/m 2 min 0 min 556 W/m 18,8 km/h (3 Bft)
11.05.2015 10:20 18,7 C 16,1 C 69 % 1021,6 hPa 0,0 l/m 2 min 0 min 595 W/m 20,9 km/h (4 Bft)
11.05.2015 10:22 18,8 C 16,1 C 69 % 1021,7 hPa 0,0 l/m 2 min 0 min 575 W/m 16,7 km/h (3 Bft)
11.05.2015 10:24 19,0 C 16,1 C 70 % 1021,6 hPa 0,0 l/m 2 min 0 min 581 W/m 16,7 km/h (3 Bft)
11.05.2015 10:26 19,1 C 16,7 C 69 % 1021,6 hPa 0,0 l/m 2 min 0 min 559 W/m 20,9 km/h (4 Bft)
11.05.2015 10:28 19,2 C 16,7 C 68 % 1021,5 hPa 0,0 l/m 2 min 0 min 547 W/m 18,8 km/h (3 Bft)
11.05.2015 10:30 19,3 C 16,7 C 69 % 1021,6 hPa 0,0 l/m 2 min 0 min 598 W/m 16,7 km/h (3 Bft)
11.05.2015 10:32 19,5 C 16,7 C 70 % 1021,5 hPa 0,0 l/m 2 min 0 min 675 W/m 12,6 km/h (3 Bft)
11.05.2015 10:34 19,7 C 17,2 C 70 % 1021,5 hPa 0,0 l/m 2 min 0 min 609 W/m 18,8 km/h (3 Bft)
11.05.2015 10:36 19,8 C 17,2 C 68 % 1021,4 hPa 0,0 l/m 2 min 0 min 511 W/m 23,0 km/h (4 Bft)
11.05.2015 10:38 19,9 C 17,2 C 67 % 1021,4 hPa 0,0 l/m 2 min 0 min 451 W/m 14,6 km/h (3 Bft)
11.05.2015 10:40 20,0 C 16,7 C 66 % 1021,4 hPa 0,0 l/m 0 min 0 min 308 W/m 14,6 km/h (3 Bft)
11.05.2015 10:42 20,1 C 16,7 C 66 % 1021,3 hPa 0,0 l/m 2 min 0 min 396 W/m 20,9 km/h (4 Bft)
11.05.2015 10:44 20,1 C 16,7 C 65 % 1021,3 hPa 0,0 l/m 2 min 0 min 434 W/m 16,7 km/h (3 Bft)
11.05.2015 10:46 20,2 C 17,2 C 66 % 1021,3 hPa 0,0 l/m 2 min 0 min 609 W/m 18,8 km/h (3 Bft)
11.05.2015 10:48 20,2 C 17,2 C 65 % 1021,3 hPa 0,0 l/m 2 min 0 min 614 W/m 18,8 km/h (3 Bft)
11.05.2015 10:50 20,3 C 17,2 C 66 % 1021,3 hPa 0,0 l/m 2 min 0 min 455 W/m 20,9 km/h (4 Bft)
11.05.2015 10:52 20,3 C 17,2 C 66 % 1021,2 hPa 0,0 l/m 2 min 0 min 410 W/m 18,8 km/h (3 Bft)
11.05.2015 10:54 20,4 C 17,2 C 67 % 1021,2 hPa 0,0 l/m 2 min 0 min 369 W/m 23,0 km/h (4 Bft)
11.05.2015 10:56 20,4 C 17,2 C 65 % 1021,3 hPa 0,0 l/m 2 min 0 min 413 W/m 23,0 km/h (4 Bft)
11.05.2015 10:58 20,5 C 17,2 C 65 % 1021,2 hPa 0,0 l/m 2 min 0 min 503 W/m 25,1 km/h (4 Bft)
11.05.2015 11:00 20,6 C 17,2 C 66 % 1021,1 hPa 0,0 l/m 2 min 0 min 559 W/m 23,0 km/h (4 Bft)
11.05.2015 11:02 20,6 C 17,2 C 65 % 1021,1 hPa 0,0 l/m 2 min 0 min 580 W/m 18,8 km/h (3 Bft)
11.05.2015 11:04 20,7 C 17,2 C 66 % 1021,0 hPa 0,0 l/m 2 min 0 min 606 W/m 31,4 km/h (5 Bft)
11.05.2015 11:06 20,8 C 17,8 C 65 % 1021,0 hPa 0,0 l/m 2 min 0 min 544 W/m 23,0 km/h (4 Bft)
11.05.2015 11:08 20,8 C 17,8 C 65 % 1021,1 hPa 0,0 l/m 2 min 0 min 520 W/m 20,9 km/h (4 Bft)
11.05.2015 11:10 20,9 C 17,8 C 64 % 1021,1 hPa 0,0 l/m 2 min 0 min 484 W/m 20,9 km/h (4 Bft)
11.05.2015 11:12 20,9 C 17,8 C 64 % 1021,0 hPa 0,0 l/m 2 min 0 min 461 W/m 18,8 km/h (3 Bft)
11.05.2015 11:14 20,9 C 17,8 C 64 % 1021,0 hPa 0,0 l/m 2 min 0 min 438 W/m 23,0 km/h (4 Bft)
11.05.2015 11:16 20,9 C 17,8 C 64 % 1021,0 hPa 0,0 l/m 2 min 0 min 444 W/m 23,0 km/h (4 Bft)
11.05.2015 11:18 20,9 C 17,8 C 64 % 1021,0 hPa 0,0 l/m 2 min 0 min 476 W/m 23,0 km/h (4 Bft)
11.05.2015 11:20 21,0 C 17,8 C 65 % 1021,1 hPa 0,0 l/m 2 min 0 min 586 W/m 14,6 km/h (3 Bft)
11.05.2015 11:22 21,0 C 17,8 C 64 % 1021,1 hPa 0,0 l/m 2 min 0 min 643 W/m 25,1 km/h (4 Bft)
11.05.2015 11:24 21,1 C 18,3 C 65 % 1021,1 hPa 0,0 l/m 2 min 0 min 647 W/m 20,9 km/h (4 Bft)
11.05.2015 11:26 21,2 C 18,3 C 65 % 1021,0 hPa 0,0 l/m 2 min 0 min 597 W/m 20,9 km/h (4 Bft)
11.05.2015 11:28 21,2 C 18,3 C 65 % 1021,0 hPa 0,0 l/m 2 min 0 min 656 W/m 14,6 km/h (3 Bft)
11.05.2015 11:30 21,3 C 18,9 C 65 % 1021,0 hPa 0,0 l/m 2 min 0 min 596 W/m 20,9 km/h (4 Bft)
11.05.2015 11:32 21,4 C 18,9 C 65 % 1021,0 hPa 0,0 l/m 2 min 0 min 427 W/m 20,9 km/h (4 Bft)
11.05.2015 11:34 21,4 C 18,3 C 63 % 1021,0 hPa 0,0 l/m 2 min 0 min 506 W/m 18,8 km/h (3 Bft)
11.05.2015 11:36 21,5 C 18,9 C 64 % 1021,0 hPa 0,0 l/m 2 min 0 min 437 W/m 12,6 km/h (3 Bft)
11.05.2015 11:38 21,6 C 18,9 C 64 % 1021,0 hPa 0,0 l/m 2 min 0 min 495 W/m 14,6 km/h (3 Bft)
11.05.2015 11:40 21,6 C 18,9 C 64 % 1021,0 hPa 0,0 l/m 2 min 0 min 578 W/m 18,8 km/h (3 Bft)
11.05.2015 11:42 21,7 C 18,9 C 64 % 1021,0 hPa 0,0 l/m 2 min 0 min 477 W/m 18,8 km/h (3 Bft)
11.05.2015 11:44 21,8 C 18,9 C 65 % 1021,0 hPa 0,0 l/m 2 min 0 min 499 W/m 14,6 km/h (3 Bft)
11.05.2015 11:46 21,8 C 18,9 C 64 % 1021,0 hPa 0,0 l/m 2 min 0 min 515 W/m 16,7 km/h (3 Bft)
11.05.2015 11:48 21,9 C 18,9 C 63 % 1021,0 hPa 0,0 l/m 2 min 0 min 506 W/m 14,6 km/h (3 Bft)
11.05.2015 11:50 21,9 C 18,9 C 63 % 1021,0 hPa 0,0 l/m 2 min 0 min 559 W/m 16,7 km/h (3 Bft)
11.05.2015 11:52 21,9 C 18,9 C 64 % 1021,0 hPa 0,0 l/m 2 min 0 min 562 W/m 12,6 km/h (3 Bft)
11.05.2015 11:54 22,1 C 18,9 C 64 % 1021,0 hPa 0,0 l/m 2 min 0 min 541 W/m 14,6 km/h (3 Bft)
11.05.2015 11:56 22,1 C 18,9 C 64 % 1021,0 hPa 0,0 l/m 2 min 0 min 498 W/m 12,6 km/h (3 Bft)
11.05.2015 11:58 22,2 C 18,9 C 63 % 1021,0 hPa 0,0 l/m 2 min 0 min 407 W/m 23,0 km/h (4 Bft)
11.05.2015 12:00 22,2 C 18,9 C 63 % 1021,0 hPa 0,0 l/m 2 min 0 min 393 W/m 14,6 km/h (3 Bft)
11.05.2015 12:02 22,2 C 18,9 C 63 % 1020,9 hPa 0,0 l/m 2 min 0 min 415 W/m 14,6 km/h (3 Bft)
11.05.2015 12:06 22,3 C 18,9 C 63 % 1021,0 hPa 0,0 l/m 2 min 0 min 501 W/m 14,6 km/h (3 Bft)
11.05.2015 12:08 22,3 C 19,4 C 62 % 1021,0 hPa 0,0 l/m 2 min 0 min 529 W/m 12,6 km/h (3 Bft)
11.05.2015 12:10 22,3 C 19,4 C 62 % 1021,0 hPa 0,0 l/m 2 min 0 min 487 W/m 23,0 km/h (4 Bft)
11.05.2015 12:12 22,4 C 19,4 C 62 % 1021,0 hPa 0,0 l/m 2 min 0 min 519 W/m 23,0 km/h (4 Bft)
11.05.2015 12:14 22,4 C 19,4 C 63 % 1020,9 hPa 0,0 l/m 2 min 0 min 530 W/m 18,8 km/h (3 Bft)
11.05.2015 12:16 22,5 C 20,0 C 63 % 1020,8 hPa 0,0 l/m 2 min 0 min 518 W/m 14,6 km/h (3 Bft)
11.05.2015 12:18 22,6 C 20,0 C 63 % 1020,7 hPa 0,0 l/m 2 min 0 min 532 W/m 20,9 km/h (4 Bft)
11.05.2015 12:20 22,7 C 20,0 C 62 % 1020,7 hPa 0,0 l/m 2 min 0 min 545 W/m 16,7 km/h (3 Bft)
11.05.2015 12:22 22,8 C 20,0 C 62 % 1020,6 hPa 0,0 l/m 2 min 0 min 561 W/m 14,6 km/h (3 Bft)
11.05.2015 12:24 22,8 C 20,0 C 62 % 1020,6 hPa 0,0 l/m 2 min 0 min 503 W/m 12,6 km/h (3 Bft)
11.05.2015 12:26 22,9 C 20,0 C 62 % 1020,6 hPa 0,0 l/m 2 min 0 min 488 W/m 12,6 km/h (3 Bft)
11.05.2015 12:28 22,9 C 20,0 C 62 % 1020,6 hPa 0,0 l/m 2 min 0 min 504 W/m 18,8 km/h (3 Bft)
11.05.2015 12:30 23,0 C 20,0 C 62 % 1020,7 hPa 0,0 l/m 2 min 0 min 504 W/m 16,7 km/h (3 Bft)
11.05.2015 12:32 23,1 C 20,0 C 62 % 1020,6 hPa 0,0 l/m 2 min 0 min 484 W/m 14,6 km/h (3 Bft)
11.05.2015 12:34 23,1 C 20,6 C 62 % 1020,5 hPa 0,0 l/m 2 min 0 min 441 W/m 18,8 km/h (3 Bft)
11.05.2015 12:36 23,2 C 20,6 C 62 % 1020,5 hPa 0,0 l/m 2 min 0 min 473 W/m 16,7 km/h (3 Bft)
11.05.2015 12:38 23,2 C 20,6 C 61 % 1020,5 hPa 0,0 l/m 2 min 0 min 461 W/m 20,9 km/h (4 Bft)
11.05.2015 12:40 23,2 C 20,0 C 61 % 1020,5 hPa 0,0 l/m 2 min 0 min 419 W/m 23,0 km/h (4 Bft)
11.05.2015 12:42 23,2 C 20,0 C 61 % 1020,4 hPa 0,0 l/m 2 min 0 min 448 W/m 23,0 km/h (4 Bft)
11.05.2015 12:44 23,2 C 20,0 C 60 % 1020,4 hPa 0,0 l/m 2 min 0 min 506 W/m 20,9 km/h (4 Bft)
11.05.2015 12:46 23,3 C 20,6 C 61 % 1020,4 hPa 0,0 l/m 2 min 0 min 491 W/m 16,7 km/h (3 Bft)
11.05.2015 12:48 23,2 C 20,0 C 60 % 1020,3 hPa 0,0 l/m 2 min 0 min 428 W/m 18,8 km/h (3 Bft)
11.05.2015 12:50 23,2 C 20,0 C 61 % 1020,3 hPa 0,0 l/m 2 min 0 min 423 W/m 20,9 km/h (4 Bft)
11.05.2015 12:52 23,2 C 20,0 C 61 % 1020,3 hPa 0,0 l/m 0 min 0 min 401 W/m 16,7 km/h (3 Bft)
11.05.2015 12:54 23,2 C 20,0 C 61 % 1020,3 hPa 0,0 l/m 2 min 0 min 419 W/m 18,8 km/h (3 Bft)
11.05.2015 12:56 23,2 C 20,0 C 61 % 1020,3 hPa 0,0 l/m 2 min 0 min 480 W/m 16,7 km/h (3 Bft)
11.05.2015 12:58 23,2 C 20,0 C 60 % 1020,3 hPa 0,0 l/m 2 min 0 min 422 W/m 16,7 km/h (3 Bft)
11.05.2015 13:00 23,2 C 20,0 C 61 % 1020,2 hPa 0,0 l/m 2 min 0 min 412 W/m 18,8 km/h (3 Bft)
11.05.2015 13:02 23,2 C 20,0 C 61 % 1020,2 hPa 0,0 l/m 2 min 0 min 455 W/m 18,8 km/h (3 Bft)
11.05.2015 13:04 23,2 C 20,0 C 61 % 1020,2 hPa 0,0 l/m 2 min 0 min 507 W/m 16,7 km/h (3 Bft)
11.05.2015 13:06 23,2 C 20,0 C 62 % 1020,1 hPa 0,0 l/m 2 min 0 min 455 W/m 18,8 km/h (3 Bft)
11.05.2015 13:08 23,2 C 20,6 C 62 % 1020,2 hPa 0,0 l/m 2 min 0 min 467 W/m 18,8 km/h (3 Bft)
11.05.2015 13:10 23,3 C 21,1 C 62 % 1020,2 hPa 0,0 l/m 2 min 0 min 492 W/m 16,7 km/h (3 Bft)
11.05.2015 13:12 23,3 C 21,1 C 62 % 1020,1 hPa 0,0 l/m 2 min 0 min 694 W/m 18,8 km/h (3 Bft)
11.05.2015 13:14 23,4 C 21,7 C 61 % 1020,0 hPa 0,0 l/m 2 min 0 min 756 W/m 16,7 km/h (3 Bft)
11.05.2015 13:16 23,6 C 22,2 C 61 % 1019,9 hPa 0,0 l/m 2 min 0 min 796 W/m 18,8 km/h (3 Bft)
11.05.2015 13:18 23,7 C 22,2 C 60 % 1019,9 hPa 0,0 l/m 2 min 0 min 874 W/m 18,8 km/h (3 Bft)
11.05.2015 13:20 23,9 C 22,2 C 59 % 1019,8 hPa 0,0 l/m 2 min 0 min 763 W/m 16,7 km/h (3 Bft)
11.05.2015 13:22 24,1 C 22,2 C 60 % 1019,9 hPa 0,0 l/m 2 min 0 min 745 W/m 20,9 km/h (4 Bft)
11.05.2015 13:24 24,2 C 22,8 C 60 % 1020,0 hPa 0,0 l/m 2 min 0 min 823 W/m 12,6 km/h (3 Bft)
11.05.2015 13:26 24,3 C 22,8 C 60 % 1020,0 hPa 0,0 l/m 2 min 0 min 852 W/m 14,6 km/h (3 Bft)
11.05.2015 13:28 24,5 C 23,3 C 59 % 1019,9 hPa 0,0 l/m 2 min 0 min 835 W/m 18,8 km/h (3 Bft)
11.05.2015 13:30 24,7 C 23,3 C 59 % 1019,9 hPa 0,0 l/m 2 min 0 min 835 W/m 14,6 km/h (3 Bft)
11.05.2015 13:32 24,8 C 23,9 C 59 % 1020,0 hPa 0,0 l/m 2 min 0 min 824 W/m 10,5 km/h (2 Bft)
11.05.2015 13:34 25,1 C 23,3 C 59 % 1019,9 hPa 0,0 l/m 2 min 0 min 797 W/m 14,6 km/h (3 Bft)
11.05.2015 13:36 25,1 C 22,8 C 56 % 1020,0 hPa 0,0 l/m 2 min 0 min 842 W/m 20,9 km/h (4 Bft)
11.05.2015 13:38 25,3 C 22,8 C 56 % 1019,9 hPa 0,0 l/m 2 min 0 min 849 W/m 20,9 km/h (4 Bft)
11.05.2015 13:40 25,4 C 22,2 C 55 % 1019,9 hPa 0,0 l/m 2 min 0 min 818 W/m 18,8 km/h (3 Bft)
11.05.2015 13:42 25,5 C 22,2 C 55 % 1019,9 hPa 0,0 l/m 2 min 0 min 859 W/m 18,8 km/h (3 Bft)
11.05.2015 13:44 25,6 C 22,2 C 55 % 1019,8 hPa 0,0 l/m 2 min 0 min 850 W/m 29,3 km/h (5 Bft)
11.05.2015 13:46 25,7 C 21,7 C 54 % 1019,9 hPa 0,0 l/m 2 min 0 min 811 W/m 18,8 km/h (3 Bft)
11.05.2015 13:48 25,7 C 21,7 C 54 % 1019,8 hPa 0,0 l/m 2 min 0 min 844 W/m 14,6 km/h (3 Bft)
11.05.2015 13:50 25,8 C 21,7 C 53 % 1019,8 hPa 0,0 l/m 2 min 0 min 858 W/m 16,7 km/h (3 Bft)
11.05.2015 13:52 25,8 C 21,7 C 53 % 1019,8 hPa 0,0 l/m 2 min 0 min 800 W/m 23,0 km/h (4 Bft)
11.05.2015 13:54 25,9 C 21,7 C 55 % 1019,8 hPa 0,0 l/m 2 min 0 min 779 W/m 18,8 km/h (3 Bft)
11.05.2015 13:56 25,9 C 21,7 C 54 % 1019,8 hPa 0,0 l/m 2 min 0 min 554 W/m 16,7 km/h (3 Bft)
11.05.2015 13:58 26,0 C 21,7 C 53 % 1019,7 hPa 0,0 l/m 0 min 0 min 399 W/m 25,1 km/h (4 Bft)
11.05.2015 14:00 26,1 C 21,7 C 52 % 1019,7 hPa 0,0 l/m 2 min 0 min 676 W/m 16,7 km/h (3 Bft)
11.05.2015 14:02 26,1 C 21,7 C 52 % 1019,6 hPa 0,0 l/m 2 min 0 min 759 W/m 14,6 km/h (3 Bft)
11.05.2015 14:04 26,2 C 22,2 C 53 % 1019,7 hPa 0,0 l/m 2 min 0 min 779 W/m 16,7 km/h (3 Bft)
11.05.2015 14:06 26,2 C 22,2 C 52 % 1019,6 hPa 0,0 l/m 2 min 0 min 854 W/m 25,1 km/h (4 Bft)
11.05.2015 14:08 26,3 C 22,2 C 52 % 1019,6 hPa 0,0 l/m 2 min 0 min 833 W/m 25,1 km/h (4 Bft)
11.05.2015 14:10 26,3 C 22,2 C 51 % 1019,6 hPa 0,0 l/m 2 min 0 min 575 W/m 20,9 km/h (4 Bft)
11.05.2015 14:12 26,3 C 21,7 C 50 % 1019,6 hPa 0,0 l/m 2 min 0 min 465 W/m 18,8 km/h (3 Bft)
11.05.2015 14:14 26,2 C 21,7 C 50 % 1019,6 hPa 0,0 l/m 2 min 0 min 428 W/m 23,0 km/h (4 Bft)
11.05.2015 14:16 26,2 C 21,7 C 49 % 1019,7 hPa 0,0 l/m 0 min 0 min 383 W/m 20,9 km/h (4 Bft)
11.05.2015 14:18 26,1 C 21,7 C 50 % 1019,6 hPa 0,0 l/m 0 min 0 min 349 W/m 14,6 km/h (3 Bft)
11.05.2015 14:20 26,1 C 21,1 C 49 % 1019,6 hPa 0,0 l/m 0 min 0 min 362 W/m 16,7 km/h (3 Bft)
11.05.2015 14:22 26,0 C 21,1 C 49 % 1019,5 hPa 0,0 l/m 0 min 0 min 374 W/m 18,8 km/h (3 Bft)
11.05.2015 14:24 25,9 C 21,1 C 50 % 1019,5 hPa 0,0 l/m 0 min 0 min 366 W/m 14,6 km/h (3 Bft)
11.05.2015 14:26 25,8 C 21,1 C 50 % 1019,5 hPa 0,0 l/m 0 min 0 min 379 W/m 14,6 km/h (3 Bft)
11.05.2015 14:28 25,8 C 21,1 C 50 % 1019,5 hPa 0,0 l/m 0 min 0 min 373 W/m 14,6 km/h (3 Bft)
11.05.2015 14:30 25,8 C 21,1 C 50 % 1019,5 hPa 0,0 l/m 0 min 0 min 378 W/m 23,0 km/h (4 Bft)
11.05.2015 14:32 25,7 C 21,1 C 49 % 1019,5 hPa 0,0 l/m 0 min 0 min 376 W/m 18,8 km/h (3 Bft)
11.05.2015 14:34 25,7 C 21,1 C 49 % 1019,5 hPa 0,0 l/m 0 min 0 min 383 W/m 12,6 km/h (3 Bft)
11.05.2015 14:36 25,7 C 21,7 C 50 % 1019,5 hPa 0,0 l/m 2 min 0 min 629 W/m 14,6 km/h (3 Bft)
11.05.2015 14:38 25,7 C 21,7 C 50 % 1019,4 hPa 0,0 l/m 2 min 0 min 768 W/m 25,1 km/h (4 Bft)
11.05.2015 14:40 25,8 C 21,7 C 51 % 1019,4 hPa 0,0 l/m 2 min 0 min 839 W/m 18,8 km/h (3 Bft)
11.05.2015 14:42 25,9 C 22,2 C 51 % 1019,4 hPa 0,0 l/m 2 min 0 min 789 W/m 18,8 km/h (3 Bft)
11.05.2015 14:44 26,0 C 22,2 C 49 % 1019,4 hPa 0,0 l/m 2 min 0 min 750 W/m 29,3 km/h (5 Bft)
11.05.2015 14:46 26,1 C 21,7 C 49 % 1019,4 hPa 0,0 l/m 2 min 0 min 674 W/m 20,9 km/h (4 Bft)
11.05.2015 14:48 26,2 C 21,7 C 49 % 1019,3 hPa 0,0 l/m 2 min 0 min 741 W/m 23,0 km/h (4 Bft)
11.05.2015 14:50 26,3 C 22,2 C 51 % 1019,3 hPa 0,0 l/m 2 min 0 min 711 W/m 18,8 km/h (3 Bft)
11.05.2015 14:52 26,4 C 22,2 C 50 % 1019,4 hPa 0,0 l/m 2 min 0 min 655 W/m 18,8 km/h (3 Bft)
11.05.2015 14:54 26,5 C 22,2 C 51 % 1019,4 hPa 0,0 l/m 2 min 0 min 663 W/m 18,8 km/h (3 Bft)
11.05.2015 14:56 26,6 C 22,2 C 49 % 1019,3 hPa 0,0 l/m 2 min 0 min 686 W/m 20,9 km/h (4 Bft)
11.05.2015 14:58 26,7 C 22,2 C 50 % 1019,3 hPa 0,0 l/m 2 min 0 min 693 W/m 18,8 km/h (3 Bft)
11.05.2015 15:00 26,8 C 22,2 C 49 % 1019,3 hPa 0,0 l/m 2 min 0 min 736 W/m 20,9 km/h (4 Bft)
11.05.2015 15:02 26,8 C 22,2 C 49 % 1019,3 hPa 0,0 l/m 2 min 0 min 783 W/m 20,9 km/h (4 Bft)
11.05.2015 15:04 26,9 C 22,2 C 48 % 1019,3 hPa 0,0 l/m 2 min 0 min 776 W/m 16,7 km/h (3 Bft)
11.05.2015 15:06 27,0 C 22,2 C 48 % 1019,3 hPa 0,0 l/m 2 min 0 min 773 W/m 16,7 km/h (3 Bft)
11.05.2015 15:08 27,1 C 22,2 C 48 % 1019,2 hPa 0,0 l/m 2 min 0 min 722 W/m 23,0 km/h (4 Bft)
11.05.2015 15:10 27,2 C 22,2 C 48 % 1019,2 hPa 0,0 l/m 2 min 0 min 722 W/m 20,9 km/h (4 Bft)
11.05.2015 15:12 27,2 C 22,2 C 48 % 1019,2 hPa 0,0 l/m 2 min 0 min 768 W/m 20,9 km/h (4 Bft)
11.05.2015 15:14 27,3 C 22,2 C 48 % 1019,1 hPa 0,0 l/m 2 min 0 min 726 W/m 14,6 km/h (3 Bft)
11.05.2015 15:16 27,4 C 22,2 C 48 % 1019,1 hPa 0,0 l/m 2 min 0 min 696 W/m 14,6 km/h (3 Bft)
11.05.2015 15:18 27,5 C 22,2 C 48 % 1019,1 hPa 0,0 l/m 2 min 0 min 682 W/m 16,7 km/h (3 Bft)
11.05.2015 15:20 27,6 C 22,8 C 46 % 1019,0 hPa 0,0 l/m 2 min 0 min 745 W/m 25,1 km/h (4 Bft)
11.05.2015 15:22 27,7 C 22,8 C 45 % 1019,0 hPa 0,0 l/m 2 min 0 min 738 W/m 29,3 km/h (5 Bft)
11.05.2015 15:24 27,7 C 22,8 C 46 % 1019,0 hPa 0,0 l/m 2 min 0 min 733 W/m 23,0 km/h (4 Bft)
11.05.2015 15:26 27,8 C 22,8 C 47 % 1018,9 hPa 0,0 l/m 2 min 0 min 692 W/m 16,7 km/h (3 Bft)
11.05.2015 15:28 27,8 C 22,8 C 47 % 1018,9 hPa 0,0 l/m 2 min 0 min 660 W/m 25,1 km/h (4 Bft)
11.05.2015 15:30 27,8 C 22,8 C 44 % 1019,0 hPa 0,0 l/m 2 min 0 min 624 W/m 14,6 km/h (3 Bft)
11.05.2015 15:32 27,8 C 22,8 C 44 % 1018,9 hPa 0,0 l/m 2 min 0 min 661 W/m 8,4 km/h (2 Bft)
11.05.2015 15:34 27,9 C 22,8 C 45 % 1018,8 hPa 0,0 l/m 2 min 0 min 670 W/m 6,3 km/h (2 Bft)
11.05.2015 15:36 27,9 C 22,8 C 44 % 1018,9 hPa 0,0 l/m 2 min 0 min 693 W/m 12,6 km/h (3 Bft)
11.05.2015 15:38 28,1 C 22,8 C 47 % 1018,8 hPa 0,0 l/m 2 min 0 min 689 W/m 20,9 km/h (4 Bft)
11.05.2015 15:40 28,1 C 22,8 C 44 % 1018,9 hPa 0,0 l/m 2 min 0 min 696 W/m 29,3 km/h (5 Bft)
11.05.2015 15:42 28,1 C 23,3 C 45 % 1018,8 hPa 0,0 l/m 2 min 0 min 712 W/m 16,7 km/h (3 Bft)
11.05.2015 15:44 28,1 C 23,3 C 44 % 1018,8 hPa 0,0 l/m 2 min 0 min 712 W/m 23,0 km/h (4 Bft)
11.05.2015 15:46 28,1 C 23,3 C 44 % 1018,8 hPa 0,0 l/m 2 min 0 min 698 W/m 25,1 km/h (4 Bft)
11.05.2015 15:48 28,1 C 22,8 C 43 % 1018,8 hPa 0,0 l/m 2 min 0 min 634 W/m 33,5 km/h (5 Bft)
11.05.2015 15:50 28,1 C 22,8 C 42 % 1018,7 hPa 0,0 l/m 2 min 0 min 650 W/m 29,3 km/h (5 Bft)
11.05.2015 15:52 28,1 C 22,8 C 43 % 1018,7 hPa 0,0 l/m 2 min 0 min 689 W/m 25,1 km/h (4 Bft)
11.05.2015 15:54 28,1 C 22,8 C 43 % 1018,7 hPa 0,0 l/m 2 min 0 min 693 W/m 25,1 km/h (4 Bft)
11.05.2015 15:56 28,1 C 22,8 C 43 % 1018,7 hPa 0,0 l/m 2 min 0 min 667 W/m 25,1 km/h (4 Bft)
11.05.2015 15:58 28,1 C 22,8 C 44 % 1018,7 hPa 0,0 l/m 2 min 0 min 665 W/m 20,9 km/h (4 Bft)
11.05.2015 16:00 28,1 C 22,8 C 46 % 1018,7 hPa 0,0 l/m 2 min 0 min 694 W/m 16,7 km/h (3 Bft)
11.05.2015 16:02 28,2 C 22,8 C 44 % 1018,7 hPa 0,0 l/m 2 min 0 min 674 W/m 20,9 km/h (4 Bft)
11.05.2015 16:04 28,2 C 22,8 C 44 % 1018,6 hPa 0,0 l/m 2 min 0 min 678 W/m 14,6 km/h (3 Bft)
11.05.2015 16:06 28,2 C 22,2 C 43 % 1018,6 hPa 0,0 l/m 2 min 0 min 643 W/m 20,9 km/h (4 Bft)
11.05.2015 16:08 28,2 C 22,2 C 42 % 1018,6 hPa 0,0 l/m 2 min 0 min 386 W/m 14,6 km/h (3 Bft)
11.05.2015 16:10 28,3 C 22,2 C 43 % 1018,5 hPa 0,0 l/m 2 min 0 min 722 W/m 12,6 km/h (3 Bft)
11.05.2015 16:12 28,3 C 22,8 C 43 % 1018,5 hPa 0,0 l/m 2 min 0 min 721 W/m 18,8 km/h (3 Bft)
11.05.2015 16:14 28,4 C 22,8 C 43 % 1018,5 hPa 0,0 l/m 2 min 0 min 717 W/m 18,8 km/h (3 Bft)
11.05.2015 16:16 28,4 C 22,8 C 42 % 1018,5 hPa 0,0 l/m 2 min 0 min 708 W/m 25,1 km/h (4 Bft)
11.05.2015 16:18 28,5 C 22,8 C 42 % 1018,4 hPa 0,0 l/m 2 min 0 min 681 W/m 14,6 km/h (3 Bft)
11.05.2015 16:20 28,6 C 22,8 C 42 % 1018,4 hPa 0,0 l/m 2 min 0 min 657 W/m 8,4 km/h (2 Bft)
11.05.2015 16:22 28,6 C 22,8 C 43 % 1018,4 hPa 0,0 l/m 2 min 0 min 685 W/m 18,8 km/h (3 Bft)
11.05.2015 16:24 28,7 C 22,8 C 45 % 1018,4 hPa 0,0 l/m 2 min 0 min 667 W/m 20,9 km/h (4 Bft)
11.05.2015 16:26 28,7 C 22,8 C 43 % 1018,3 hPa 0,0 l/m 2 min 0 min 671 W/m 27,2 km/h (4 Bft)
11.05.2015 16:28 28,8 C 22,8 C 42 % 1018,3 hPa 0,0 l/m 2 min 0 min 668 W/m 20,9 km/h (4 Bft)
11.05.2015 16:30 28,8 C 22,8 C 42 % 1018,3 hPa 0,0 l/m 2 min 0 min 678 W/m 20,9 km/h (4 Bft)
11.05.2015 16:32 28,8 C 22,8 C 40 % 1018,3 hPa 0,0 l/m 2 min 0 min 415 W/m 27,2 km/h (4 Bft)
11.05.2015 16:34 28,8 C 22,8 C 40 % 1018,3 hPa 0,0 l/m 2 min 0 min 477 W/m 20,9 km/h (4 Bft)
11.05.2015 16:36 28,8 C 22,8 C 40 % 1018,3 hPa 0,0 l/m 2 min 0 min 622 W/m 16,7 km/h (3 Bft)
11.05.2015 16:38 28,8 C 22,2 C 41 % 1018,3 hPa 0,0 l/m 2 min 0 min 622 W/m 16,7 km/h (3 Bft)
11.05.2015 16:40 28,8 C 22,2 C 41 % 1018,3 hPa 0,0 l/m 2 min 0 min 621 W/m 10,5 km/h (2 Bft)
11.05.2015 16:42 28,8 C 22,2 C 41 % 1018,3 hPa 0,0 l/m 2 min 0 min 631 W/m 18,8 km/h (3 Bft)
11.05.2015 16:44 28,7 C 22,2 C 39 % 1018,3 hPa 0,0 l/m 2 min 0 min 633 W/m 25,1 km/h (4 Bft)
11.05.2015 16:46 28,7 C 22,2 C 39 % 1018,3 hPa 0,0 l/m 2 min 0 min 633 W/m 10,5 km/h (2 Bft)
11.05.2015 16:48 28,8 C 22,2 C 39 % 1018,2 hPa 0,0 l/m 2 min 0 min 629 W/m 14,6 km/h (3 Bft)
11.05.2015 16:50 28,8 C 22,2 C 39 % 1018,2 hPa 0,0 l/m 2 min 0 min 616 W/m 12,6 km/h (3 Bft)
11.05.2015 16:52 28,8 C 22,2 C 39 % 1018,2 hPa 0,0 l/m 2 min 0 min 561 W/m 10,5 km/h (2 Bft)
11.05.2015 16:54 28,9 C 22,2 C 40 % 1018,2 hPa 0,0 l/m 2 min 0 min 518 W/m 20,9 km/h (4 Bft)
11.05.2015 16:56 28,9 C 22,8 C 40 % 1018,2 hPa 0,0 l/m 2 min 0 min 383 W/m 16,7 km/h (3 Bft)
11.05.2015 16:58 28,9 C 22,8 C 40 % 1018,2 hPa 0,0 l/m 2 min 0 min 542 W/m 18,8 km/h (3 Bft)
11.05.2015 17:00 29,0 C 22,8 C 40 % 1018,2 hPa 0,0 l/m 2 min 0 min 555 W/m 18,8 km/h (3 Bft)
11.05.2015 17:02 29,1 C 22,8 C 38 % 1018,0 hPa 0,0 l/m 2 min 0 min 513 W/m 20,9 km/h (4 Bft)
11.05.2015 17:04 29,1 C 22,8 C 38 % 1018,0 hPa 0,0 l/m 2 min 0 min 406 W/m 25,1 km/h (4 Bft)
11.05.2015 17:06 29,0 C 22,8 C 37 % 1018,0 hPa 0,0 l/m 2 min 0 min 569 W/m 18,8 km/h (3 Bft)
11.05.2015 17:08 28,9 C 22,8 C 37 % 1017,9 hPa 0,0 l/m 2 min 0 min 517 W/m 20,9 km/h (4 Bft)
11.05.2015 17:10 28,8 C 22,2 C 37 % 1018,0 hPa 0,0 l/m 2 min 0 min 447 W/m 12,6 km/h (3 Bft)
11.05.2015 17:12 28,8 C 22,2 C 38 % 1018,0 hPa 0,0 l/m 2 min 0 min 466 W/m 12,6 km/h (3 Bft)
11.05.2015 17:14 28,8 C 22,8 C 38 % 1018,0 hPa 0,0 l/m 2 min 0 min 474 W/m 18,8 km/h (3 Bft)
11.05.2015 17:16 28,8 C 22,8 C 39 % 1017,9 hPa 0,0 l/m 2 min 0 min 511 W/m 16,7 km/h (3 Bft)
11.05.2015 17:18 28,8 C 22,2 C 40 % 1018,0 hPa 0,0 l/m 2 min 0 min 471 W/m 18,8 km/h (3 Bft)
11.05.2015 17:20 28,7 C 22,2 C 39 % 1017,9 hPa 0,0 l/m 2 min 0 min 475 W/m 18,8 km/h (3 Bft)
11.05.2015 17:22 28,7 C 22,2 C 38 % 1017,9 hPa 0,0 l/m 2 min 0 min 456 W/m 16,7 km/h (3 Bft)
11.05.2015 17:24 28,7 C 22,2 C 38 % 1018,0 hPa 0,0 l/m 2 min 0 min 419 W/m 14,6 km/h (3 Bft)
11.05.2015 17:26 28,7 C 22,2 C 39 % 1018,0 hPa 0,0 l/m 2 min 0 min 441 W/m 12,6 km/h (3 Bft)
11.05.2015 17:28 28,6 C 22,2 C 40 % 1018,0 hPa 0,0 l/m 2 min 0 min 407 W/m 14,6 km/h (3 Bft)
11.05.2015 17:30 28,6 C 21,7 C 38 % 1018,0 hPa 0,0 l/m 2 min 0 min 360 W/m 14,6 km/h (3 Bft)
11.05.2015 17:32 28,4 C 21,7 C 37 % 1017,9 hPa 0,0 l/m 2 min 0 min 360 W/m 16,7 km/h (3 Bft)
11.05.2015 17:34 28,3 C 21,7 C 39 % 1018,0 hPa 0,0 l/m 2 min 0 min 328 W/m 18,8 km/h (3 Bft)
11.05.2015 17:36 28,2 C 21,7 C 38 % 1018,0 hPa 0,0 l/m 2 min 0 min 309 W/m 18,8 km/h (3 Bft)
11.05.2015 17:38 28,1 C 21,7 C 39 % 1018,0 hPa 0,0 l/m 2 min 0 min 303 W/m 18,8 km/h (3 Bft)
11.05.2015 17:40 28,1 C 21,7 C 39 % 1018,0 hPa 0,0 l/m 2 min 0 min 313 W/m 14,6 km/h (3 Bft)
11.05.2015 17:42 28,0 C 21,7 C 40 % 1018,0 hPa 0,0 l/m 2 min 0 min 339 W/m 14,6 km/h (3 Bft)
11.05.2015 17:44 27,9 C 21,7 C 41 % 1018,0 hPa 0,0 l/m 2 min 0 min 376 W/m 14,6 km/h (3 Bft)
11.05.2015 17:46 27,9 C 21,7 C 41 % 1017,9 hPa 0,0 l/m 2 min 0 min 399 W/m 23,0 km/h (4 Bft)
11.05.2015 17:48 27,8 C 21,7 C 41 % 1018,0 hPa 0,0 l/m 2 min 0 min 403 W/m 12,6 km/h (3 Bft)
11.05.2015 17:50 27,8 C 21,7 C 41 % 1018,0 hPa 0,0 l/m 2 min 0 min 401 W/m 14,6 km/h (3 Bft)
11.05.2015 17:52 27,7 C 21,7 C 41 % 1018,0 hPa 0,0 l/m 2 min 0 min 358 W/m 18,8 km/h (3 Bft)
11.05.2015 17:54 27,7 C 21,7 C 41 % 1017,9 hPa 0,0 l/m 0 min 0 min 232 W/m 16,7 km/h (3 Bft)
11.05.2015 17:56 27,7 C 21,1 C 42 % 1018,0 hPa 0,0 l/m 2 min 0 min 354 W/m 16,7 km/h (3 Bft)
11.05.2015 17:58 27,6 C 21,1 C 42 % 1017,9 hPa 0,0 l/m 2 min 0 min 405 W/m 12,6 km/h (3 Bft)
11.05.2015 18:00 27,6 C 21,1 C 42 % 1017,9 hPa 0,0 l/m 2 min 0 min 237 W/m 14,6 km/h (3 Bft)
11.05.2015 18:02 27,6 C 21,1 C 42 % 1017,9 hPa 0,0 l/m 2 min 0 min 362 W/m 10,5 km/h (2 Bft)
11.05.2015 18:06 27,6 C 21,1 C 42 % 1018,2 hPa 0,0 l/m 2 min 0 min 507 W/m 14,6 km/h (3 Bft)
11.05.2015 18:08 27,6 C 21,1 C 42 % 1018,2 hPa 0,0 l/m 2 min 0 min 480 W/m 12,6 km/h (3 Bft)
11.05.2015 18:10 27,5 C 21,1 C 42 % 1018,0 hPa 0,0 l/m 2 min 0 min 307 W/m 16,7 km/h (3 Bft)
11.05.2015 18:12 27,5 C 21,1 C 43 % 1017,9 hPa 0,0 l/m 0 min 0 min 196 W/m 14,6 km/h (3 Bft)
11.05.2015 18:14 27,5 C 21,1 C 42 % 1018,0 hPa 0,0 l/m 0 min 0 min 199 W/m 6,3 km/h (2 Bft)
11.05.2015 18:16 27,5 C 21,1 C 44 % 1017,9 hPa 0,0 l/m 2 min 0 min 239 W/m 12,6 km/h (3 Bft)
11.05.2015 18:18 27,4 C 21,1 C 43 % 1018,0 hPa 0,0 l/m 2 min 0 min 258 W/m 18,8 km/h (3 Bft)
11.05.2015 18:20 27,4 C 21,1 C 43 % 1018,0 hPa 0,0 l/m 2 min 0 min 277 W/m 12,6 km/h (3 Bft)
11.05.2015 18:22 27,4 C 21,1 C 42 % 1018,2 hPa 0,0 l/m 2 min 0 min 405 W/m 14,6 km/h (3 Bft)
11.05.2015 18:24 27,4 C 21,1 C 42 % 1018,2 hPa 0,0 l/m 2 min 0 min 333 W/m 14,6 km/h (3 Bft)
11.05.2015 18:26 27,3 C 21,1 C 42 % 1018,0 hPa 0,0 l/m 2 min 0 min 290 W/m 14,6 km/h (3 Bft)
11.05.2015 18:28 27,3 C 21,1 C 43 % 1018,0 hPa 0,0 l/m 2 min 0 min 260 W/m 16,7 km/h (3 Bft)
11.05.2015 18:30 27,3 C 21,1 C 43 % 1018,0 hPa 0,0 l/m 2 min 0 min 230 W/m 14,6 km/h (3 Bft)
11.05.2015 18:32 27,3 C 21,1 C 44 % 1018,2 hPa 0,0 l/m 2 min 0 min 239 W/m 10,5 km/h (2 Bft)
11.05.2015 18:34 27,2 C 20,6 C 43 % 1018,1 hPa 0,0 l/m 2 min 0 min 226 W/m 18,8 km/h (3 Bft)
11.05.2015 18:36 27,2 C 20,6 C 42 % 1018,1 hPa 0,0 l/m 2 min 0 min 276 W/m 16,7 km/h (3 Bft)
11.05.2015 18:38 27,1 C 20,6 C 43 % 1018,2 hPa 0,0 l/m 2 min 0 min 261 W/m 16,7 km/h (3 Bft)
11.05.2015 18:40 27,1 C 20,6 C 44 % 1018,1 hPa 0,0 l/m 2 min 0 min 251 W/m 16,7 km/h (3 Bft)
11.05.2015 18:42 27,0 C 20,6 C 44 % 1018,2 hPa 0,0 l/m 2 min 0 min 248 W/m 12,6 km/h (3 Bft)
11.05.2015 18:44 26,9 C 20,6 C 44 % 1018,2 hPa 0,0 l/m 2 min 0 min 237 W/m 12,6 km/h (3 Bft)
11.05.2015 18:46 26,9 C 20,6 C 43 % 1018,2 hPa 0,0 l/m 2 min 0 min 237 W/m 18,8 km/h (3 Bft)
11.05.2015 18:48 26,9 C 20,6 C 43 % 1018,2 hPa 0,0 l/m 2 min 0 min 239 W/m 16,7 km/h (3 Bft)
11.05.2015 18:50 26,8 C 20,6 C 43 % 1018,2 hPa 0,0 l/m 2 min 0 min 230 W/m 16,7 km/h (3 Bft)
11.05.2015 18:52 26,8 C 20,6 C 43 % 1018,2 hPa 0,0 l/m 2 min 0 min 219 W/m 12,6 km/h (3 Bft)
11.05.2015 18:54 26,7 C 20,6 C 43 % 1018,3 hPa 0,0 l/m 2 min 0 min 193 W/m 16,7 km/h (3 Bft)
11.05.2015 18:56 26,7 C 20,6 C 43 % 1018,2 hPa 0,0 l/m 2 min 0 min 183 W/m 16,7 km/h (3 Bft)
11.05.2015 18:58 26,6 C 20,6 C 44 % 1018,2 hPa 0,0 l/m 2 min 0 min 174 W/m 12,6 km/h (3 Bft)
11.05.2015 19:00 26,6 C 20,6 C 43 % 1018,2 hPa 0,0 l/m 2 min 0 min 173 W/m 14,6 km/h (3 Bft)
11.05.2015 19:02 26,5 C 20,0 C 44 % 1018,2 hPa 0,0 l/m 2 min 0 min 173 W/m 10,5 km/h (2 Bft)
11.05.2015 19:04 26,5 C 20,0 C 44 % 1018,2 hPa 0,0 l/m 2 min 0 min 175 W/m 10,5 km/h (2 Bft)
11.05.2015 19:06 26,4 C 20,0 C 44 % 1018,2 hPa 0,0 l/m 2 min 0 min 153 W/m 8,4 km/h (2 Bft)
11.05.2015 19:08 26,4 C 20,0 C 45 % 1018,2 hPa 0,0 l/m 0 min 0 min 140 W/m 8,4 km/h (2 Bft)
11.05.2015 19:10 26,4 C 20,0 C 45 % 1018,2 hPa 0,0 l/m 2 min 0 min 147 W/m 12,6 km/h (3 Bft)
11.05.2015 19:12 26,3 C 20,0 C 45 % 1018,2 hPa 0,0 l/m 2 min 0 min 144 W/m 12,6 km/h (3 Bft)
11.05.2015 19:14 26,3 C 20,0 C 45 % 1018,3 hPa 0,0 l/m 2 min 0 min 142 W/m 8,4 km/h (2 Bft)
11.05.2015 19:16 26,2 C 20,0 C 45 % 1018,3 hPa 0,0 l/m 2 min 0 min 136 W/m 8,4 km/h (2 Bft)
11.05.2015 19:18 26,2 C 20,0 C 46 % 1018,3 hPa 0,0 l/m 0 min 0 min 128 W/m 8,4 km/h (2 Bft)
11.05.2015 19:20 26,2 C 20,0 C 46 % 1018,2 hPa 0,0 l/m 2 min 0 min 134 W/m 10,5 km/h (2 Bft)
11.05.2015 19:22 26,2 C 20,0 C 46 % 1018,2 hPa 0,0 l/m 0 min 0 min 123 W/m 10,5 km/h (2 Bft)
11.05.2015 19:24 26,1 C 20,0 C 45 % 1018,1 hPa 0,0 l/m 0 min 0 min 114 W/m 12,6 km/h (3 Bft)
11.05.2015 19:26 26,1 C 20,0 C 45 % 1018,2 hPa 0,0 l/m 0 min 0 min 106 W/m 8,4 km/h (2 Bft)
11.05.2015 19:28 26,0 C 20,0 C 46 % 1018,2 hPa 0,0 l/m 0 min 0 min 103 W/m 10,5 km/h (2 Bft)
11.05.2015 19:30 26,0 C 20,0 C 45 % 1018,2 hPa 0,0 l/m 0 min 0 min 98 W/m 12,6 km/h (3 Bft)
11.05.2015 19:32 25,9 C 19,4 C 45 % 1018,1 hPa 0,0 l/m 0 min 0 min 96 W/m 6,3 km/h (2 Bft)
11.05.2015 19:34 25,9 C 19,4 C 46 % 1018,1 hPa 0,0 l/m 0 min 0 min 96 W/m 6,3 km/h (2 Bft)
11.05.2015 19:36 25,8 C 19,4 C 46 % 1018,1 hPa 0,0 l/m 0 min 0 min 97 W/m 6,3 km/h (2 Bft)
11.05.2015 19:38 25,8 C 19,4 C 47 % 1018,1 hPa 0,0 l/m 0 min 0 min 98 W/m 10,5 km/h (2 Bft)
11.05.2015 19:40 25,8 C 19,4 C 46 % 1018,0 hPa 0,0 l/m 0 min 0 min 99 W/m 8,4 km/h (2 Bft)
11.05.2015 19:42 25,7 C 19,4 C 46 % 1018,1 hPa 0,0 l/m 0 min 0 min 100 W/m 10,5 km/h (2 Bft)
11.05.2015 19:44 25,7 C 19,4 C 47 % 1018,0 hPa 0,0 l/m 2 min 0 min 100 W/m 10,5 km/h (2 Bft)
11.05.2015 19:46 25,6 C 19,4 C 47 % 1018,0 hPa 0,0 l/m 2 min 0 min 98 W/m 6,3 km/h (2 Bft)
11.05.2015 19:48 25,6 C 19,4 C 47 % 1018,0 hPa 0,0 l/m 2 min 0 min 96 W/m 8,4 km/h (2 Bft)
11.05.2015 19:50 25,5 C 19,4 C 47 % 1018,0 hPa 0,0 l/m 0 min 0 min 91 W/m 8,4 km/h (2 Bft)
11.05.2015 19:52 25,5 C 19,4 C 47 % 1018,0 hPa 0,0 l/m 0 min 0 min 89 W/m 6,3 km/h (2 Bft)
11.05.2015 19:54 25,4 C 19,4 C 47 % 1018,0 hPa 0,0 l/m 0 min 0 min 85 W/m 8,4 km/h (2 Bft)
11.05.2015 19:56 25,4 C 19,4 C 47 % 1018,0 hPa 0,0 l/m 0 min 0 min 81 W/m 4,2 km/h (1 Bft)
11.05.2015 19:58 25,3 C 18,9 C 48 % 1018,1 hPa 0,0 l/m 0 min 0 min 77 W/m 6,3 km/h (2 Bft)
11.05.2015 20:00 25,3 C 18,9 C 47 % 1018,1 hPa 0,0 l/m 0 min 0 min 73 W/m 6,3 km/h (2 Bft)
11.05.2015 20:02 25,2 C 18,9 C 48 % 1018,1 hPa 0,0 l/m 0 min 0 min 70 W/m 6,3 km/h (2 Bft)
11.05.2015 20:04 25,2 C 18,9 C 48 % 1018,1 hPa 0,0 l/m 0 min 0 min 68 W/m 6,3 km/h (2 Bft)
11.05.2015 20:06 25,2 C 18,9 C 48 % 1018,1 hPa 0,0 l/m 0 min 0 min 65 W/m 4,2 km/h (1 Bft)
11.05.2015 20:08 25,1 C 18,9 C 48 % 1018,1 hPa 0,0 l/m 0 min 0 min 64 W/m 6,3 km/h (2 Bft)
11.05.2015 20:10 25,1 C 18,9 C 49 % 1018,1 hPa 0,0 l/m 0 min 0 min 62 W/m 6,3 km/h (2 Bft)
11.05.2015 20:12 25,1 C 18,3 C 49 % 1018,1 hPa 0,0 l/m 0 min 0 min 60 W/m 4,2 km/h (1 Bft)
11.05.2015 20:14 25,0 C 18,3 C 48 % 1018,0 hPa 0,0 l/m 0 min 0 min 59 W/m 6,3 km/h (2 Bft)
11.05.2015 20:16 25,0 C 18,3 C 49 % 1018,0 hPa 0,0 l/m 0 min 0 min 56 W/m 4,2 km/h (1 Bft)
11.05.2015 20:18 24,9 C 18,3 C 48 % 1018,0 hPa 0,0 l/m 0 min 0 min 55 W/m 4,2 km/h (1 Bft)
11.05.2015 20:20 24,9 C 18,3 C 48 % 1018,0 hPa 0,0 l/m 0 min 0 min 54 W/m 6,3 km/h (2 Bft)
11.05.2015 20:22 24,9 C 18,3 C 48 % 1018,0 hPa 0,0 l/m 2 min 0 min 53 W/m 6,3 km/h (2 Bft)
11.05.2015 20:24 24,8 C 18,3 C 50 % 1018,1 hPa 0,0 l/m 2 min 0 min 51 W/m 6,3 km/h (2 Bft)
11.05.2015 20:26 24,7 C 18,3 C 49 % 1018,1 hPa 0,0 l/m 2 min 0 min 48 W/m 6,3 km/h (2 Bft)
11.05.2015 20:28 24,7 C 18,3 C 49 % 1018,1 hPa 0,0 l/m 2 min 0 min 45 W/m 6,3 km/h (2 Bft)
11.05.2015 20:30 24,6 C 18,3 C 49 % 1018,0 hPa 0,0 l/m 0 min 0 min 42 W/m 6,3 km/h (2 Bft)
11.05.2015 20:32 24,6 C 17,8 C 49 % 1018,1 hPa 0,0 l/m 2 min 0 min 40 W/m 4,2 km/h (1 Bft)
11.05.2015 20:34 24,5 C 17,8 C 50 % 1018,1 hPa 0,0 l/m 0 min 0 min 37 W/m 4,2 km/h (1 Bft)
11.05.2015 20:36 24,4 C 17,8 C 50 % 1018,1 hPa 0,0 l/m 0 min 0 min 34 W/m 6,3 km/h (2 Bft)
11.05.2015 20:38 24,4 C 17,8 C 50 % 1018,0 hPa 0,0 l/m 0 min 0 min 32 W/m 6,3 km/h (2 Bft)
11.05.2015 20:40 24,4 C 17,8 C 50 % 1018,0 hPa 0,0 l/m 0 min 0 min 29 W/m 6,3 km/h (2 Bft)
11.05.2015 20:42 24,3 C 17,8 C 51 % 1018,0 hPa 0,0 l/m 0 min 0 min 27 W/m 6,3 km/h (2 Bft)
11.05.2015 20:44 24,3 C 17,8 C 51 % 1018,0 hPa 0,0 l/m 0 min 0 min 25 W/m 6,3 km/h (2 Bft)
11.05.2015 20:46 24,2 C 17,8 C 51 % 1018,0 hPa 0,0 l/m 0 min 0 min 22 W/m 6,3 km/h (2 Bft)
11.05.2015 20:48 24,2 C 17,2 C 51 % 1018,0 hPa 0,0 l/m 0 min 0 min 20 W/m 6,3 km/h (2 Bft)
11.05.2015 20:50 24,1 C 17,2 C 52 % 1017,9 hPa 0,0 l/m 2 min 0 min 19 W/m 6,3 km/h (2 Bft)
11.05.2015 20:52 24,1 C 17,2 C 52 % 1017,9 hPa 0,0 l/m 0 min 0 min 17 W/m 6,3 km/h (2 Bft)
11.05.2015 20:54 23,9 C 17,2 C 52 % 1017,9 hPa 0,0 l/m 0 min 0 min 16 W/m 10,5 km/h (2 Bft)
11.05.2015 20:56 23,9 C 17,2 C 51 % 1017,9 hPa 0,0 l/m 0 min 0 min 13 W/m 8,4 km/h (2 Bft)
11.05.2015 20:58 23,8 C 17,2 C 52 % 1017,9 hPa 0,0 l/m 0 min 0 min 12 W/m 6,3 km/h (2 Bft)
11.05.2015 21:00 23,7 C 17,2 C 51 % 1017,9 hPa 0,0 l/m 0 min 0 min 11 W/m 8,4 km/h (2 Bft)
11.05.2015 21:02 23,7 C 17,2 C 52 % 1017,8 hPa 0,0 l/m 0 min 0 min 9 W/m 8,4 km/h (2 Bft)
11.05.2015 21:04 23,6 C 17,2 C 52 % 1017,9 hPa 0,0 l/m 0 min 0 min 8 W/m 8,4 km/h (2 Bft)
11.05.2015 21:06 23,5 C 17,2 C 52 % 1017,8 hPa 0,0 l/m 0 min 0 min 7 W/m 8,4 km/h (2 Bft)
11.05.2015 21:08 23,4 C 16,7 C 52 % 1017,8 hPa 0,0 l/m 0 min 0 min 6 W/m 4,2 km/h (1 Bft)
11.05.2015 21:10 23,4 C 16,7 C 53 % 1017,8 hPa 0,0 l/m 0 min 0 min 5 W/m 4,2 km/h (1 Bft)
11.05.2015 21:12 23,3 C 16,7 C 54 % 1017,9 hPa 0,0 l/m 0 min 0 min 5 W/m 4,2 km/h (1 Bft)
11.05.2015 21:14 23,2 C 16,7 C 54 % 1017,8 hPa 0,0 l/m 0 min 0 min 1 W/m 4,2 km/h (1 Bft)
11.05.2015 21:16 23,1 C 16,7 C 55 % 1017,8 hPa 0,0 l/m 0 min 0 min 0 W/m 4,2 km/h (1 Bft)
11.05.2015 21:18 23,0 C 16,7 C 55 % 1017,9 hPa 0,0 l/m 0 min 0 min 0 W/m 4,2 km/h (1 Bft)
11.05.2015 21:20 22,9 C 16,7 C 56 % 1017,9 hPa 0,0 l/m 0 min 0 min 0 W/m 4,2 km/h (1 Bft)
11.05.2015 21:22 22,8 C 16,7 C 56 % 1017,9 hPa 0,0 l/m 0 min 0 min 0 W/m 4,2 km/h (1 Bft)
11.05.2015 21:24 22,7 C 16,7 C 57 % 1017,9 hPa 0,0 l/m 0 min 0 min 0 W/m 4,2 km/h (1 Bft)
11.05.2015 21:26 22,7 C 16,1 C 57 % 1017,9 hPa 0,0 l/m 0 min 0 min 0 W/m 4,2 km/h (1 Bft)
11.05.2015 21:28 22,6 C 16,1 C 57 % 1017,9 hPa 0,0 l/m 0 min 0 min 0 W/m 4,2 km/h (1 Bft)
11.05.2015 21:30 22,4 C 16,1 C 58 % 1017,9 hPa 0,0 l/m 0 min 0 min 0 W/m 4,2 km/h (1 Bft)
11.05.2015 21:32 22,3 C 16,1 C 59 % 1017,9 hPa 0,0 l/m 0 min 0 min 0 W/m 4,2 km/h (1 Bft)
11.05.2015 21:34 22,2 C 16,1 C 59 % 1017,8 hPa 0,0 l/m 0 min 0 min 0 W/m 2,1 km/h (1 Bft)
11.05.2015 21:36 22,1 C 16,1 C 59 % 1017,9 hPa 0,0 l/m 0 min 0 min 0 W/m 2,1 km/h (1 Bft)
11.05.2015 21:38 22,0 C 16,1 C 58 % 1017,8 hPa 0,0 l/m 0 min 0 min 0 W/m 2,1 km/h (1 Bft)
11.05.2015 21:40 21,9 C 16,1 C 58 % 1017,8 hPa 0,0 l/m 0 min 0 min 0 W/m 2,1 km/h (1 Bft)
11.05.2015 21:42 21,8 C 15,6 C 58 % 1017,8 hPa 0,0 l/m 0 min 0 min 0 W/m 2,1 km/h (1 Bft)
11.05.2015 21:44 21,7 C 15,6 C 59 % 1017,8 hPa 0,0 l/m 0 min 0 min 0 W/m 2,1 km/h (1 Bft)
11.05.2015 21:46 21,6 C 15,6 C 59 % 1017,8 hPa 0,0 l/m 0 min 0 min 0 W/m 4,2 km/h (1 Bft)
11.05.2015 21:48 21,5 C 15,6 C 60 % 1017,8 hPa 0,0 l/m 0 min 0 min 0 W/m 4,2 km/h (1 Bft)
11.05.2015 21:50 21,4 C 15,6 C 60 % 1017,8 hPa 0,0 l/m 0 min 0 min 0 W/m 2,1 km/h (1 Bft)
11.05.2015 21:52 21,3 C 15,6 C 60 % 1017,8 hPa 0,0 l/m 0 min 0 min 0 W/m 2,1 km/h (1 Bft)
11.05.2015 21:54 21,2 C 15,6 C 61 % 1017,8 hPa 0,0 l/m 0 min 0 min 0 W/m 4,2 km/h (1 Bft)
11.05.2015 21:56 21,0 C 15,6 C 62 % 1017,8 hPa 0,0 l/m 0 min 0 min 0 W/m 4,2 km/h (1 Bft)
11.05.2015 21:58 20,9 C 15,6 C 62 % 1017,8 hPa 0,0 l/m 0 min 0 min 0 W/m 2,1 km/h (1 Bft)
11.05.2015 22:00 20,8 C 15,6 C 62 % 1017,8 hPa 0,0 l/m 0 min 0 min 0 W/m 2,1 km/h (1 Bft)
11.05.2015 22:02 20,7 C 15,6 C 63 % 1017,9 hPa 0,0 l/m 0 min 0 min 0 W/m 2,1 km/h (1 Bft)
11.05.2015 22:04 20,6 C 15,0 C 64 % 1017,9 hPa 0,0 l/m 0 min 0 min 0 W/m 2,1 km/h (1 Bft)
11.05.2015 22:06 20,4 C 15,0 C 64 % 1017,9 hPa 0,0 l/m 0 min 0 min 0 W/m 2,1 km/h (1 Bft)
11.05.2015 22:08 20,3 C 15,0 C 64 % 1017,9 hPa 0,0 l/m 0 min 0 min 0 W/m 2,1 km/h (1 Bft)
11.05.2015 22:10 20,2 C 15,0 C 65 % 1017,9 hPa 0,0 l/m 0 min 0 min 0 W/m 0,0 km/h (0 Bft)
11.05.2015 22:12 20,2 C 15,0 C 65 % 1018,0 hPa 0,0 l/m 0 min 0 min 0 W/m 0,0 km/h (0 Bft)
11.05.2015 22:14 20,1 C 15,0 C 66 % 1018,0 hPa 0,0 l/m 0 min 0 min 0 W/m 2,1 km/h (1 Bft)
11.05.2015 22:16 19,9 C 15,0 C 66 % 1018,0 hPa 0,0 l/m 0 min 0 min 0 W/m 2,1 km/h (1 Bft)
11.05.2015 22:18 19,9 C 15,0 C 66 % 1018,1 hPa 0,0 l/m 0 min 0 min 0 W/m 2,1 km/h (1 Bft)
11.05.2015 22:20 19,8 C 15,0 C 66 % 1018,1 hPa 0,0 l/m 0 min 0 min 0 W/m 2,1 km/h (1 Bft)
11.05.2015 22:22 19,7 C 15,0 C 67 % 1018,1 hPa 0,0 l/m 0 min 0 min 0 W/m 0,0 km/h (0 Bft)
11.05.2015 22:24 19,6 C 15,0 C 68 % 1018,2 hPa 0,0 l/m 0 min 0 min 0 W/m 2,1 km/h (1 Bft)
11.05.2015 22:26 19,6 C 15,0 C 68 % 1018,2 hPa 0,0 l/m 0 min 0 min 0 W/m 4,2 km/h (1 Bft)
11.05.2015 22:28 19,5 C 15,0 C 68 % 1018,2 hPa 0,0 l/m 0 min 0 min 0 W/m 4,2 km/h (1 Bft)
11.05.2015 22:30 19,4 C 15,0 C 69 % 1018,2 hPa 0,0 l/m 0 min 0 min 0 W/m 4,2 km/h (1 Bft)
11.05.2015 22:32 19,3 C 15,0 C 69 % 1018,2 hPa 0,0 l/m 0 min 0 min 0 W/m 4,2 km/h (1 Bft)
11.05.2015 22:34 19,2 C 15,0 C 69 % 1018,1 hPa 0,0 l/m 0 min 0 min 0 W/m 2,1 km/h (1 Bft)
11.05.2015 22:36 19,2 C 15,0 C 69 % 1018,2 hPa 0,0 l/m 0 min 0 min 0 W/m 4,2 km/h (1 Bft)
11.05.2015 22:38 19,1 C 15,0 C 70 % 1018,1 hPa 0,0 l/m 0 min 0 min 0 W/m 4,2 km/h (1 Bft)
11.05.2015 22:40 19,1 C 15,0 C 70 % 1018,1 hPa 0,0 l/m 0 min 0 min 0 W/m 6,3 km/h (2 Bft)
11.05.2015 22:42 19,0 C 15,0 C 71 % 1018,0 hPa 0,0 l/m 0 min 0 min 0 W/m 6,3 km/h (2 Bft)
11.05.2015 22:44 18,9 C 14,4 C 71 % 1018,0 hPa 0,0 l/m 0 min 0 min 0 W/m 6,3 km/h (2 Bft)
11.05.2015 22:46 18,8 C 14,4 C 71 % 1017,9 hPa 0,0 l/m 0 min 0 min 0 W/m 10,5 km/h (2 Bft)
11.05.2015 22:48 18,7 C 14,4 C 71 % 1017,9 hPa 0,0 l/m 0 min 0 min 0 W/m 10,5 km/h (2 Bft)
11.05.2015 22:50 18,7 C 14,4 C 71 % 1017,9 hPa 0,0 l/m 0 min 0 min 0 W/m 8,4 km/h (2 Bft)
11.05.2015 22:52 18,6 C 14,4 C 71 % 1017,9 hPa 0,0 l/m 0 min 0 min 0 W/m 8,4 km/h (2 Bft)
11.05.2015 22:54 18,5 C 14,4 C 72 % 1017,9 hPa 0,0 l/m 0 min 0 min 0 W/m 6,3 km/h (2 Bft)
11.05.2015 22:56 18,4 C 14,4 C 72 % 1017,9 hPa 0,0 l/m 0 min 0 min 0 W/m 6,3 km/h (2 Bft)
11.05.2015 22:58 18,4 C 14,4 C 72 % 1017,8 hPa 0,0 l/m 0 min 0 min 0 W/m 4,2 km/h (1 Bft)
11.05.2015 23:00 18,3 C 14,4 C 72 % 1017,8 hPa 0,0 l/m 0 min 0 min 0 W/m 4,2 km/h (1 Bft)
11.05.2015 23:02 18,3 C 14,4 C 72 % 1017,9 hPa 0,0 l/m 0 min 0 min 0 W/m 6,3 km/h (2 Bft)
11.05.2015 23:04 18,2 C 14,4 C 73 % 1017,8 hPa 0,0 l/m 0 min 0 min 0 W/m 8,4 km/h (2 Bft)
11.05.2015 23:06 18,2 C 14,4 C 73 % 1017,9 hPa 0,0 l/m 0 min 0 min 0 W/m 8,4 km/h (2 Bft)
11.05.2015 23:08 18,1 C 14,4 C 73 % 1017,8 hPa 0,0 l/m 0 min 0 min 0 W/m 8,4 km/h (2 Bft)
11.05.2015 23:10 18,1 C 14,4 C 73 % 1017,9 hPa 0,0 l/m 0 min 0 min 0 W/m 8,4 km/h (2 Bft)
11.05.2015 23:12 18,0 C 14,4 C 73 % 1017,8 hPa 0,0 l/m 0 min 0 min 0 W/m 6,3 km/h (2 Bft)
11.05.2015 23:14 17,9 C 14,4 C 73 % 1017,9 hPa 0,0 l/m 0 min 0 min 0 W/m 8,4 km/h (2 Bft)
11.05.2015 23:16 17,9 C 14,4 C 73 % 1017,9 hPa 0,0 l/m 0 min 0 min 0 W/m 8,4 km/h (2 Bft)
11.05.2015 23:18 17,8 C 14,4 C 73 % 1017,9 hPa 0,0 l/m 0 min 0 min 0 W/m 8,4 km/h (2 Bft)
11.05.2015 23:20 17,8 C 14,4 C 73 % 1017,9 hPa 0,0 l/m 0 min 0 min 0 W/m 8,4 km/h (2 Bft)
11.05.2015 23:22 17,7 C 14,4 C 73 % 1017,9 hPa 0,0 l/m 0 min 0 min 0 W/m 8,4 km/h (2 Bft)
11.05.2015 23:24 17,7 C 14,4 C 73 % 1018,0 hPa 0,0 l/m 0 min 0 min 0 W/m 6,3 km/h (2 Bft)
11.05.2015 23:26 17,7 C 14,4 C 73 % 1018,0 hPa 0,0 l/m 0 min 0 min 0 W/m 6,3 km/h (2 Bft)
11.05.2015 23:28 17,7 C 14,4 C 73 % 1018,0 hPa 0,0 l/m 0 min 0 min 0 W/m 6,3 km/h (2 Bft)
11.05.2015 23:30 17,6 C 14,4 C 73 % 1018,0 hPa 0,0 l/m 0 min 0 min 0 W/m 6,3 km/h (2 Bft)
11.05.2015 23:32 17,6 C 14,4 C 73 % 1018,0 hPa 0,0 l/m 0 min 0 min 0 W/m 4,2 km/h (1 Bft)
11.05.2015 23:34 17,6 C 14,4 C 73 % 1018,0 hPa 0,0 l/m 0 min 0 min 0 W/m 4,2 km/h (1 Bft)
11.05.2015 23:36 17,5 C 13,9 C 73 % 1018,0 hPa 0,0 l/m 0 min 0 min 0 W/m 4,2 km/h (1 Bft)
11.05.2015 23:38 17,4 C 13,9 C 73 % 1018,0 hPa 0,0 l/m 0 min 0 min 0 W/m 4,2 km/h (1 Bft)
11.05.2015 23:40 17,4 C 13,9 C 73 % 1018,0 hPa 0,0 l/m 0 min 0 min 0 W/m 4,2 km/h (1 Bft)
11.05.2015 23:42 17,4 C 13,9 C 73 % 1018,0 hPa 0,0 l/m 0 min 0 min 0 W/m 2,1 km/h (1 Bft)
11.05.2015 23:44 17,3 C 13,9 C 73 % 1018,1 hPa 0,0 l/m 0 min 0 min 0 W/m 2,1 km/h (1 Bft)
11.05.2015 23:46 17,3 C 13,9 C 73 % 1018,1 hPa 0,0 l/m 0 min 0 min 0 W/m 0,0 km/h (0 Bft)
11.05.2015 23:48 17,3 C 13,9 C 73 % 1018,2 hPa 0,0 l/m 0 min 0 min 0 W/m 0,0 km/h (0 Bft)
11.05.2015 23:50 17,2 C 13,9 C 74 % 1018,1 hPa 0,0 l/m 0 min 0 min 0 W/m 0,0 km/h (0 Bft)
11.05.2015 23:52 17,2 C 13,9 C 74 % 1018,0 hPa 0,0 l/m 0 min 0 min 0 W/m 0,0 km/h (0 Bft)
11.05.2015 23:54 17,2 C 13,9 C 74 % 1018,1 hPa 0,0 l/m 0 min 0 min 0 W/m 0,0 km/h (0 Bft)
11.05.2015 23:56 17,1 C 13,9 C 74 % 1018,1 hPa 0,0 l/m 0 min 0 min 0 W/m 0,0 km/h (0 Bft)
11.05.2015 23:58 17,1 C 13,9 C 75 % 1018,0 hPa 0,0 l/m 0 min 0 min 0 W/m 0,0 km/h (0 Bft)
_ Min-Zeit 04:52 01:54 17:06 21:02 - - - - 22:10
Minimum _ 11,5 C 10,6 C 37 % 1017,8 hPa - - - - 0,0 km/h (0 Bft)
_ Max-Zeit 17:02 13:32 05:00 00:14 00:00 07:30 00:00 13:18 15:48
Maximum _ 29,1 C 23,9 C 87 % 1023,5 hPa 0,0 l/m 2 min 0 min 874 W/m 33,5 km/h
S (5 Bft)
Durchschnitt _ 19,4 C 15,9 C 66 % 1020,5 hPa #0,0 l/m #11:22 h #0 min. 373 W/m 13,4 km/h (3 Bft)
© 2015 W. Hausmann